Wetterdaten: Donnerstag, 14.11.2019
Datum Zeit Temp. Aussen Temp. o. S. Temp +5cm Feuchte Auss Luftdruck Regen Sonnenschein Regendauer Solar Windben Empfang
14.11.2019 00:00 5,2 C 4,4 C 4,4 C 94 % 1001,5 hPa 0,0 l/m 0 min 0 min 0 W/m 12,9 km/h (3 Bft) 100,00 %
14.11.2019 00:02 5,2 C 4,4 C 4,4 C 94 % 1001,5 hPa 0,0 l/m 0 min 0 min 0 W/m 12,9 km/h (3 Bft) 100,00 %
14.11.2019 00:04 5,2 C 4,4 C 4,4 C 94 % 1001,5 hPa 0,0 l/m 0 min 0 min 0 W/m 6,4 km/h (2 Bft) 100,00 %
14.11.2019 00:07 5,2 C 4,4 C 4,4 C 93 % 1001,5 hPa 0,0 l/m 0 min 0 min 0 W/m 19,3 km/h (3 Bft) 74,68 %
14.11.2019 00:08 5,2 C 4,4 C 4,4 C 94 % 1001,5 hPa 0,0 l/m 0 min 0 min 0 W/m 6,4 km/h (2 Bft) 100,00 %
14.11.2019 00:10 5,3 C 4,4 C 3,9 C 93 % 1001,5 hPa 0,0 l/m 0 min 0 min 0 W/m 19,3 km/h (3 Bft) 100,00 %
14.11.2019 00:12 5,3 C 4,4 C 3,9 C 94 % 1001,4 hPa 0,0 l/m 0 min 0 min 0 W/m 16,1 km/h (3 Bft) 100,00 %
14.11.2019 00:14 5,3 C 4,4 C 3,9 C 94 % 1001,5 hPa 0,0 l/m 0 min 0 min 0 W/m 19,3 km/h (3 Bft) 100,00 %
14.11.2019 00:16 5,3 C 4,4 C 3,9 C 94 % 1001,5 hPa 0,0 l/m 0 min 0 min 0 W/m 19,3 km/h (3 Bft) 97,87 %
14.11.2019 00:18 5,2 C 4,4 C 3,9 C 93 % 1001,5 hPa 0,0 l/m 0 min 0 min 0 W/m 12,9 km/h (3 Bft) 100,00 %
14.11.2019 00:20 5,3 C 4,4 C 3,9 C 93 % 1001,5 hPa 0,0 l/m 0 min 0 min 0 W/m 16,1 km/h (3 Bft) 100,00 %
14.11.2019 00:22 5,2 C 4,4 C 3,9 C 93 % 1001,4 hPa 0,0 l/m 0 min 0 min 0 W/m 12,9 km/h (3 Bft) 100,00 %
14.11.2019 00:24 5,2 C 4,4 C 3,9 C 93 % 1001,4 hPa 0,0 l/m 0 min 0 min 0 W/m 16,1 km/h (3 Bft) 95,74 %
14.11.2019 00:26 5,2 C 4,4 C 3,9 C 93 % 1001,4 hPa 0,0 l/m 0 min 0 min 0 W/m 12,9 km/h (3 Bft) 97,87 %
14.11.2019 00:28 5,2 C 4,4 C 3,9 C 93 % 1001,4 hPa 0,0 l/m 0 min 0 min 0 W/m 16,1 km/h (3 Bft) 97,87 %
14.11.2019 00:30 5,2 C 4,4 C 3,9 C 93 % 1001,4 hPa 0,0 l/m 0 min 0 min 0 W/m 12,9 km/h (3 Bft) 95,74 %
14.11.2019 00:32 5,2 C 4,4 C 3,9 C 93 % 1001,4 hPa 0,0 l/m 0 min 0 min 0 W/m 16,1 km/h (3 Bft) 97,87 %
14.11.2019 00:34 5,2 C 4,4 C 3,9 C 93 % 1001,4 hPa 0,0 l/m 0 min 0 min 0 W/m 16,1 km/h (3 Bft) 95,74 %
14.11.2019 00:36 5,2 C 4,4 C 3,9 C 93 % 1001,3 hPa 0,0 l/m 0 min 0 min 0 W/m 19,3 km/h (3 Bft) 97,83 %
14.11.2019 00:38 5,2 C 4,4 C 3,9 C 93 % 1001,3 hPa 0,0 l/m 0 min 0 min 0 W/m 19,3 km/h (3 Bft) 97,87 %
14.11.2019 00:40 5,2 C 4,4 C 3,9 C 93 % 1001,3 hPa 0,0 l/m 0 min 0 min 0 W/m 16,1 km/h (3 Bft) 95,74 %
14.11.2019 00:42 5,1 C 4,4 C 3,9 C 93 % 1001,2 hPa 0,0 l/m 0 min 0 min 0 W/m 16,1 km/h (3 Bft) 95,74 %
14.11.2019 00:44 5,1 C 4,4 C 3,9 C 93 % 1001,2 hPa 0,0 l/m 0 min 0 min 0 W/m 12,9 km/h (3 Bft) 100,00 %
14.11.2019 00:46 5,1 C 3,9 C 3,9 C 93 % 1001,2 hPa 0,0 l/m 0 min 0 min 0 W/m 16,1 km/h (3 Bft) 97,83 %
14.11.2019 00:48 5,1 C 4,4 C 3,9 C 93 % 1001,2 hPa 0,0 l/m 0 min 0 min 0 W/m 19,3 km/h (3 Bft) 97,87 %
14.11.2019 00:50 5,1 C 4,4 C 3,9 C 93 % 1001,2 hPa 0,0 l/m 0 min 0 min 0 W/m 16,1 km/h (3 Bft) 97,87 %
14.11.2019 00:52 5,1 C 4,4 C 3,9 C 93 % 1001,2 hPa 0,0 l/m 0 min 0 min 0 W/m 22,5 km/h (4 Bft) 95,74 %
14.11.2019 00:54 5,1 C 4,4 C 3,9 C 93 % 1001,2 hPa 0,0 l/m 0 min 0 min 0 W/m 12,9 km/h (3 Bft) 93,62 %
14.11.2019 00:56 5,1 C 4,4 C 3,9 C 93 % 1001,2 hPa 0,0 l/m 0 min 0 min 0 W/m 12,9 km/h (3 Bft) 97,87 %
14.11.2019 00:58 5,1 C 4,4 C 3,9 C 93 % 1001,1 hPa 0,0 l/m 0 min 0 min 0 W/m 16,1 km/h (3 Bft) 95,65 %
14.11.2019 01:00 5,1 C 4,4 C 3,9 C 93 % 1001,1 hPa 0,0 l/m 0 min 0 min 0 W/m 16,1 km/h (3 Bft) 93,62 %
14.11.2019 01:02 5,0 C 4,4 C 3,9 C 93 % 1001,1 hPa 0,0 l/m 0 min 0 min 0 W/m 16,1 km/h (3 Bft) 97,87 %
14.11.2019 01:04 5,0 C 4,4 C 3,9 C 93 % 1001,0 hPa 0,0 l/m 0 min 0 min 0 W/m 16,1 km/h (3 Bft) 97,87 %
14.11.2019 01:06 5,0 C 4,4 C 3,9 C 93 % 1001,0 hPa 0,0 l/m 0 min 0 min 0 W/m 19,3 km/h (3 Bft) 97,87 %
14.11.2019 01:08 5,0 C 4,4 C 3,9 C 93 % 1001,0 hPa 0,0 l/m 0 min 0 min 0 W/m 16,1 km/h (3 Bft) 95,74 %
14.11.2019 01:10 5,0 C 4,4 C 3,9 C 93 % 1001,0 hPa 0,0 l/m 0 min 0 min 0 W/m 19,3 km/h (3 Bft) 95,65 %
14.11.2019 01:12 5,0 C 4,4 C 3,9 C 93 % 1001,0 hPa 0,0 l/m 0 min 0 min 0 W/m 16,1 km/h (3 Bft) 97,87 %
14.11.2019 01:14 5,0 C 4,4 C 3,9 C 93 % 1001,0 hPa 0,0 l/m 0 min 0 min 0 W/m 19,3 km/h (3 Bft) 97,87 %
14.11.2019 01:16 4,9 C 4,4 C 3,9 C 93 % 1001,0 hPa 0,0 l/m 0 min 0 min 0 W/m 16,1 km/h (3 Bft) 97,87 %
14.11.2019 01:18 4,9 C 4,4 C 3,9 C 93 % 1001,0 hPa 0,0 l/m 0 min 0 min 0 W/m 19,3 km/h (3 Bft) 97,87 %
14.11.2019 01:20 4,9 C 4,4 C 3,9 C 93 % 1001,0 hPa 0,0 l/m 0 min 0 min 0 W/m 12,9 km/h (3 Bft) 95,74 %
14.11.2019 01:22 4,9 C 3,9 C 3,9 C 93 % 1001,0 hPa 0,0 l/m 0 min 0 min 0 W/m 22,5 km/h (4 Bft) 97,83 %
14.11.2019 01:24 4,9 C 3,9 C 3,9 C 93 % 1001,0 hPa 0,0 l/m 0 min 0 min 0 W/m 12,9 km/h (3 Bft) 95,74 %
14.11.2019 01:26 4,9 C 3,9 C 3,9 C 93 % 1001,0 hPa 0,0 l/m 0 min 0 min 0 W/m 22,5 km/h (4 Bft) 97,87 %
14.11.2019 01:28 4,9 C 4,4 C 3,9 C 93 % 1001,0 hPa 0,0 l/m 0 min 0 min 0 W/m 19,3 km/h (3 Bft) 91,49 %
14.11.2019 01:30 4,9 C 3,9 C 3,9 C 93 % 1001,0 hPa 0,0 l/m 0 min 0 min 0 W/m 19,3 km/h (3 Bft) 97,87 %
14.11.2019 01:32 4,9 C 3,9 C 3,9 C 93 % 1001,0 hPa 0,0 l/m 0 min 0 min 0 W/m 12,9 km/h (3 Bft) 97,87 %
14.11.2019 01:34 4,9 C 3,9 C 3,9 C 93 % 1001,0 hPa 0,0 l/m 0 min 0 min 0 W/m 16,1 km/h (3 Bft) 95,65 %
14.11.2019 01:36 4,9 C 3,9 C 3,9 C 93 % 1001,0 hPa 0,0 l/m 0 min 0 min 0 W/m 16,1 km/h (3 Bft) 95,74 %
14.11.2019 01:38 4,9 C 3,9 C 3,9 C 93 % 1001,0 hPa 0,0 l/m 0 min 0 min 0 W/m 16,1 km/h (3 Bft) 95,74 %
14.11.2019 01:40 4,9 C 3,9 C 3,3 C 93 % 1001,1 hPa 0,0 l/m 0 min 0 min 0 W/m 12,9 km/h (3 Bft) 97,87 %
14.11.2019 01:42 4,9 C 3,9 C 3,3 C 93 % 1001,1 hPa 0,0 l/m 0 min 0 min 0 W/m 19,3 km/h (3 Bft) 97,87 %
14.11.2019 01:44 4,9 C 3,9 C 3,3 C 93 % 1001,0 hPa 0,0 l/m 0 min 0 min 0 W/m 16,1 km/h (3 Bft) 95,65 %
14.11.2019 01:46 4,8 C 3,9 C 3,3 C 93 % 1001,0 hPa 0,0 l/m 0 min 0 min 0 W/m 12,9 km/h (3 Bft) 93,62 %
14.11.2019 01:48 4,8 C 3,9 C 3,3 C 93 % 1001,1 hPa 0,0 l/m 0 min 0 min 0 W/m 12,9 km/h (3 Bft) 95,74 %
14.11.2019 01:50 4,8 C 3,9 C 3,3 C 93 % 1001,1 hPa 0,0 l/m 0 min 0 min 0 W/m 16,1 km/h (3 Bft) 95,74 %
14.11.2019 01:52 4,8 C 3,9 C 3,3 C 93 % 1001,1 hPa 0,0 l/m 0 min 0 min 0 W/m 16,1 km/h (3 Bft) 95,74 %
14.11.2019 01:54 4,8 C 3,9 C 3,3 C 93 % 1001,1 hPa 0,0 l/m 0 min 0 min 0 W/m 16,1 km/h (3 Bft) 95,74 %
14.11.2019 01:56 4,8 C 3,9 C 3,3 C 93 % 1001,1 hPa 0,0 l/m 0 min 0 min 0 W/m 19,3 km/h (3 Bft) 95,65 %
14.11.2019 01:58 4,8 C 3,9 C 3,3 C 93 % 1001,1 hPa 0,0 l/m 0 min 0 min 0 W/m 16,1 km/h (3 Bft) 93,62 %
14.11.2019 02:00 4,8 C 3,9 C 3,3 C 93 % 1001,1 hPa 0,0 l/m 0 min 0 min 0 W/m 12,9 km/h (3 Bft) 93,62 %
14.11.2019 02:02 4,8 C 3,9 C 3,3 C 93 % 1001,2 hPa 0,0 l/m 0 min 0 min 0 W/m 16,1 km/h (3 Bft) 93,62 %
14.11.2019 02:04 4,8 C 3,9 C 3,3 C 93 % 1001,1 hPa 0,0 l/m 0 min 0 min 0 W/m 19,3 km/h (3 Bft) 97,87 %
14.11.2019 02:06 4,8 C 3,9 C 3,3 C 93 % 1001,2 hPa 0,0 l/m 0 min 0 min 0 W/m 12,9 km/h (3 Bft) 95,74 %
14.11.2019 02:08 4,8 C 3,9 C 3,3 C 93 % 1001,2 hPa 0,0 l/m 0 min 0 min 0 W/m 16,1 km/h (3 Bft) 95,74 %
14.11.2019 02:10 4,8 C 3,9 C 3,3 C 93 % 1001,2 hPa 0,0 l/m 0 min 0 min 0 W/m 16,1 km/h (3 Bft) 95,74 %
14.11.2019 02:12 4,7 C 3,9 C 3,3 C 93 % 1001,2 hPa 0,0 l/m 0 min 0 min 0 W/m 16,1 km/h (3 Bft) 97,87 %
14.11.2019 02:14 4,7 C 3,9 C 3,3 C 93 % 1001,2 hPa 0,0 l/m 0 min 0 min 0 W/m 19,3 km/h (3 Bft) 95,74 %
14.11.2019 02:16 4,7 C 3,9 C 3,3 C 93 % 1001,2 hPa 0,0 l/m 0 min 0 min 0 W/m 19,3 km/h (3 Bft) 97,87 %
14.11.2019 02:18 4,7 C 3,9 C 3,3 C 93 % 1001,2 hPa 0,0 l/m 0 min 0 min 0 W/m 16,1 km/h (3 Bft) 95,83 %
14.11.2019 02:20 4,7 C 3,9 C 3,3 C 93 % 1001,2 hPa 0,0 l/m 0 min 0 min 0 W/m 12,9 km/h (3 Bft) 97,87 %
14.11.2019 02:22 4,7 C 3,9 C 3,3 C 93 % 1001,2 hPa 0,0 l/m 0 min 0 min 0 W/m 16,1 km/h (3 Bft) 97,87 %
14.11.2019 02:24 4,7 C 3,9 C 3,3 C 93 % 1001,1 hPa 0,0 l/m 0 min 0 min 0 W/m 16,1 km/h (3 Bft) 95,74 %
14.11.2019 02:26 4,7 C 3,9 C 3,3 C 93 % 1001,1 hPa 0,0 l/m 0 min 0 min 0 W/m 16,1 km/h (3 Bft) 97,87 %
14.11.2019 02:28 4,7 C 3,9 C 3,3 C 93 % 1001,1 hPa 0,0 l/m 0 min 0 min 0 W/m 16,1 km/h (3 Bft) 97,87 %
14.11.2019 02:30 4,7 C 3,9 C 3,3 C 93 % 1001,1 hPa 0,0 l/m 0 min 0 min 0 W/m 12,9 km/h (3 Bft) 100,00 %
14.11.2019 02:32 4,7 C 3,9 C 3,3 C 93 % 1001,1 hPa 0,0 l/m 0 min 0 min 0 W/m 12,9 km/h (3 Bft) 100,00 %
14.11.2019 02:34 4,7 C 3,9 C 3,3 C 93 % 1001,0 hPa 0,0 l/m 0 min 0 min 0 W/m 6,4 km/h (2 Bft) 97,87 %
14.11.2019 02:36 4,7 C 3,9 C 3,3 C 94 % 1001,1 hPa 0,0 l/m 0 min 0 min 0 W/m 12,9 km/h (3 Bft) 100,00 %
14.11.2019 02:38 4,6 C 3,9 C 3,3 C 94 % 1001,1 hPa 0,0 l/m 0 min 0 min 0 W/m 16,1 km/h (3 Bft) 100,00 %
14.11.2019 02:40 4,6 C 3,3 C 3,3 C 94 % 1001,1 hPa 0,0 l/m 0 min 0 min 0 W/m 16,1 km/h (3 Bft) 100,00 %
14.11.2019 02:42 4,6 C 3,9 C 3,3 C 94 % 1001,0 hPa 0,0 l/m 0 min 0 min 0 W/m 19,3 km/h (3 Bft) 100,00 %
14.11.2019 02:44 4,6 C 3,9 C 3,3 C 94 % 1001,0 hPa 0,0 l/m 0 min 0 min 0 W/m 16,1 km/h (3 Bft) 97,87 %
14.11.2019 02:46 4,6 C 3,9 C 3,3 C 94 % 1001,0 hPa 0,0 l/m 0 min 0 min 0 W/m 16,1 km/h (3 Bft) 100,00 %
14.11.2019 02:48 4,6 C 3,9 C 3,3 C 94 % 1001,0 hPa 0,0 l/m 0 min 0 min 0 W/m 19,3 km/h (3 Bft) 97,87 %
14.11.2019 02:50 4,6 C 3,9 C 3,3 C 94 % 1001,0 hPa 0,0 l/m 0 min 0 min 0 W/m 12,9 km/h (3 Bft) 100,00 %
14.11.2019 02:52 4,6 C 3,9 C 3,3 C 94 % 1000,9 hPa 0,0 l/m 0 min 0 min 0 W/m 22,5 km/h (4 Bft) 100,00 %
14.11.2019 02:54 4,6 C 3,9 C 3,3 C 94 % 1000,9 hPa 0,0 l/m 0 min 0 min 0 W/m 16,1 km/h (3 Bft) 97,83 %
14.11.2019 02:56 4,6 C 3,9 C 3,3 C 94 % 1000,9 hPa 0,0 l/m 0 min 0 min 0 W/m 22,5 km/h (4 Bft) 100,00 %
14.11.2019 02:58 4,6 C 3,9 C 3,3 C 94 % 1000,9 hPa 0,0 l/m 0 min 0 min 0 W/m 16,1 km/h (3 Bft) 97,87 %
14.11.2019 03:00 4,6 C 3,9 C 3,3 C 94 % 1000,8 hPa 0,0 l/m 0 min 0 min 0 W/m 19,3 km/h (3 Bft) 100,00 %
14.11.2019 03:02 4,6 C 3,9 C 3,3 C 94 % 1000,9 hPa 0,0 l/m 0 min 0 min 0 W/m 16,1 km/h (3 Bft) 100,00 %
14.11.2019 03:04 4,6 C 3,9 C 3,3 C 94 % 1000,8 hPa 0,0 l/m 0 min 0 min 0 W/m 16,1 km/h (3 Bft) 100,00 %
14.11.2019 03:06 4,6 C 3,9 C 3,3 C 94 % 1000,8 hPa 0,0 l/m 0 min 0 min 0 W/m 22,5 km/h (4 Bft) 100,00 %
14.11.2019 03:08 4,6 C 3,9 C 3,3 C 94 % 1000,8 hPa 0,0 l/m 0 min 0 min 0 W/m 19,3 km/h (3 Bft) 100,00 %
14.11.2019 03:10 4,6 C 3,9 C 3,3 C 94 % 1000,8 hPa 0,0 l/m 0 min 0 min 0 W/m 16,1 km/h (3 Bft) 97,87 %
14.11.2019 03:12 4,6 C 3,9 C 3,3 C 94 % 1000,7 hPa 0,0 l/m 0 min 0 min 0 W/m 19,3 km/h (3 Bft) 97,87 %
14.11.2019 03:14 4,6 C 3,9 C 3,3 C 94 % 1000,7 hPa 0,0 l/m 0 min 0 min 0 W/m 25,7 km/h (4 Bft) 97,87 %
14.11.2019 03:16 4,6 C 3,9 C 3,3 C 94 % 1000,7 hPa 0,0 l/m 0 min 0 min 0 W/m 19,3 km/h (3 Bft) 97,83 %
14.11.2019 03:18 4,6 C 3,9 C 3,3 C 94 % 1000,6 hPa 0,0 l/m 0 min 0 min 0 W/m 16,1 km/h (3 Bft) 97,87 %
14.11.2019 03:20 4,6 C 3,9 C 3,3 C 94 % 1000,7 hPa 0,0 l/m 0 min 0 min 0 W/m 19,3 km/h (3 Bft) 95,74 %
14.11.2019 03:22 4,6 C 3,9 C 3,3 C 94 % 1000,6 hPa 0,0 l/m 0 min 0 min 0 W/m 19,3 km/h (3 Bft) 97,87 %
14.11.2019 03:24 4,6 C 3,9 C 3,3 C 94 % 1000,6 hPa 0,0 l/m 0 min 0 min 0 W/m 19,3 km/h (3 Bft) 97,87 %
14.11.2019 03:26 4,7 C 3,9 C 3,3 C 94 % 1000,5 hPa 0,0 l/m 0 min 0 min 0 W/m 19,3 km/h (3 Bft) 51,11 %
14.11.2019 03:28 4,6 C 3,9 C 3,3 C 94 % 1000,6 hPa 0,0 l/m 0 min 0 min 0 W/m 12,9 km/h (3 Bft) 97,87 %
14.11.2019 03:30 4,6 C 3,9 C 3,3 C 94 % 1000,5 hPa 0,0 l/m 0 min 0 min 0 W/m 12,9 km/h (3 Bft) 97,83 %
14.11.2019 03:32 4,6 C 3,9 C 3,3 C 94 % 1000,5 hPa 0,0 l/m 0 min 0 min 0 W/m 16,1 km/h (3 Bft) 97,87 %
14.11.2019 03:34 4,6 C 3,9 C 3,3 C 94 % 1000,5 hPa 0,0 l/m 0 min 0 min 0 W/m 16,1 km/h (3 Bft) 97,87 %
14.11.2019 03:36 4,6 C 3,9 C 3,3 C 94 % 1000,6 hPa 0,0 l/m 0 min 0 min 0 W/m 16,1 km/h (3 Bft) 97,87 %
14.11.2019 03:38 4,6 C 3,9 C 3,3 C 94 % 1000,6 hPa 0,0 l/m 0 min 0 min 0 W/m 19,3 km/h (3 Bft) 97,87 %
14.11.2019 03:40 4,6 C 3,9 C 3,3 C 94 % 1000,5 hPa 0,0 l/m 0 min 0 min 0 W/m 16,1 km/h (3 Bft) 97,83 %
14.11.2019 03:42 4,6 C 3,9 C 3,3 C 94 % 1000,5 hPa 0,0 l/m 0 min 0 min 0 W/m 12,9 km/h (3 Bft) 93,62 %
14.11.2019 03:44 4,6 C 3,9 C 3,3 C 94 % 1000,5 hPa 0,0 l/m 0 min 0 min 0 W/m 19,3 km/h (3 Bft) 95,74 %
14.11.2019 03:46 4,6 C 3,9 C 3,3 C 94 % 1000,5 hPa 0,0 l/m 0 min 0 min 0 W/m 19,3 km/h (3 Bft) 95,74 %
14.11.2019 03:48 4,6 C 3,9 C 3,3 C 94 % 1000,5 hPa 0,0 l/m 0 min 0 min 0 W/m 16,1 km/h (3 Bft) 97,87 %
14.11.2019 03:50 4,6 C 3,9 C 3,3 C 94 % 1000,5 hPa 0,0 l/m 0 min 0 min 0 W/m 16,1 km/h (3 Bft) 97,87 %
14.11.2019 03:52 4,6 C 3,9 C 3,3 C 94 % 1000,6 hPa 0,0 l/m 0 min 0 min 0 W/m 16,1 km/h (3 Bft) 97,83 %
14.11.2019 03:54 4,6 C 3,9 C 3,3 C 94 % 1000,5 hPa 0,0 l/m 0 min 0 min 0 W/m 19,3 km/h (3 Bft) 97,87 %
14.11.2019 03:56 4,6 C 3,9 C 3,3 C 94 % 1000,5 hPa 0,0 l/m 0 min 0 min 0 W/m 16,1 km/h (3 Bft) 97,87 %
14.11.2019 03:58 4,6 C 3,9 C 3,3 C 94 % 1000,5 hPa 0,0 l/m 0 min 0 min 0 W/m 12,9 km/h (3 Bft) 97,87 %
14.11.2019 04:00 4,6 C 3,9 C 3,3 C 94 % 1000,5 hPa 0,0 l/m 0 min 0 min 0 W/m 12,9 km/h (3 Bft) 100,00 %
14.11.2019 04:02 4,6 C 3,9 C 3,3 C 94 % 1000,5 hPa 0,0 l/m 0 min 0 min 0 W/m 12,9 km/h (3 Bft) 100,00 %
14.11.2019 04:04 4,6 C 3,9 C 3,3 C 94 % 1000,5 hPa 0,0 l/m 0 min 0 min 0 W/m 16,1 km/h (3 Bft) 97,83 %
14.11.2019 04:06 4,6 C 3,9 C 3,3 C 94 % 1000,5 hPa 0,0 l/m 0 min 0 min 0 W/m 12,9 km/h (3 Bft) 97,87 %
14.11.2019 04:08 4,6 C 3,9 C 3,3 C 94 % 1000,5 hPa 0,0 l/m 0 min 0 min 0 W/m 12,9 km/h (3 Bft) 100,00 %
14.11.2019 04:10 4,6 C 3,3 C 3,3 C 94 % 1000,5 hPa 0,0 l/m 0 min 0 min 0 W/m 16,1 km/h (3 Bft) 97,87 %
14.11.2019 04:12 4,5 C 3,3 C 2,8 C 94 % 1000,5 hPa 0,0 l/m 0 min 0 min 0 W/m 12,9 km/h (3 Bft) 97,87 %
14.11.2019 04:14 4,5 C 3,3 C 2,8 C 94 % 1000,5 hPa 0,0 l/m 0 min 0 min 0 W/m 16,1 km/h (3 Bft) 100,00 %
14.11.2019 04:16 4,4 C 3,3 C 3,3 C 94 % 1000,5 hPa 0,0 l/m 0 min 0 min 0 W/m 12,9 km/h (3 Bft) 97,87 %
14.11.2019 04:18 4,4 C 3,3 C 2,8 C 94 % 1000,5 hPa 0,0 l/m 0 min 0 min 0 W/m 12,9 km/h (3 Bft) 97,87 %
14.11.2019 04:20 4,4 C 3,3 C 2,8 C 94 % 1000,5 hPa 0,0 l/m 0 min 0 min 0 W/m 12,9 km/h (3 Bft) 100,00 %
14.11.2019 04:22 4,4 C 3,3 C 2,8 C 94 % 1000,5 hPa 0,0 l/m 0 min 0 min 0 W/m 12,9 km/h (3 Bft) 97,87 %
14.11.2019 04:24 4,4 C 3,3 C 2,8 C 94 % 1000,6 hPa 0,0 l/m 0 min 0 min 0 W/m 16,1 km/h (3 Bft) 100,00 %
14.11.2019 04:26 4,4 C 3,3 C 2,8 C 94 % 1000,6 hPa 0,0 l/m 0 min 0 min 0 W/m 22,5 km/h (4 Bft) 100,00 %
14.11.2019 04:28 4,3 C 3,3 C 2,8 C 94 % 1000,6 hPa 0,0 l/m 0 min 0 min 0 W/m 19,3 km/h (3 Bft) 97,87 %
14.11.2019 04:30 4,3 C 3,3 C 2,8 C 94 % 1000,6 hPa 0,0 l/m 0 min 0 min 0 W/m 19,3 km/h (3 Bft) 97,87 %
14.11.2019 04:32 4,3 C 3,3 C 2,8 C 94 % 1000,6 hPa 0,0 l/m 0 min 0 min 0 W/m 16,1 km/h (3 Bft) 97,87 %
14.11.2019 04:34 4,3 C 3,3 C 2,8 C 94 % 1000,6 hPa 0,0 l/m 0 min 0 min 0 W/m 16,1 km/h (3 Bft) 95,74 %
14.11.2019 04:36 4,3 C 3,3 C 2,8 C 94 % 1000,6 hPa 0,0 l/m 0 min 0 min 0 W/m 22,5 km/h (4 Bft) 100,00 %
14.11.2019 04:38 4,3 C 3,3 C 2,8 C 94 % 1000,5 hPa 0,0 l/m 0 min 0 min 0 W/m 12,9 km/h (3 Bft) 100,00 %
14.11.2019 04:40 4,3 C 3,3 C 2,8 C 94 % 1000,6 hPa 0,0 l/m 0 min 0 min 0 W/m 16,1 km/h (3 Bft) 95,74 %
14.11.2019 04:42 4,3 C 3,3 C 2,8 C 94 % 1000,6 hPa 0,0 l/m 0 min 0 min 0 W/m 19,3 km/h (3 Bft) 97,87 %
14.11.2019 04:44 4,3 C 3,3 C 2,8 C 94 % 1000,6 hPa 0,0 l/m 0 min 0 min 0 W/m 22,5 km/h (4 Bft) 95,74 %
14.11.2019 04:46 4,2 C 3,3 C 3,3 C 94 % 1000,6 hPa 0,0 l/m 0 min 0 min 0 W/m 19,3 km/h (3 Bft) 97,87 %
14.11.2019 04:48 4,2 C 3,9 C 3,3 C 94 % 1000,7 hPa 0,0 l/m 0 min 0 min 0 W/m 19,3 km/h (3 Bft) 97,87 %
14.11.2019 04:50 4,3 C 3,9 C 3,3 C 94 % 1000,7 hPa 0,0 l/m 0 min 0 min 0 W/m 22,5 km/h (4 Bft) 97,83 %
14.11.2019 04:52 4,3 C 3,9 C 3,3 C 94 % 1000,8 hPa 0,0 l/m 0 min 0 min 0 W/m 19,3 km/h (3 Bft) 95,74 %
14.11.2019 04:54 4,3 C 3,9 C 3,3 C 94 % 1000,8 hPa 0,0 l/m 0 min 0 min 0 W/m 22,5 km/h (4 Bft) 95,74 %
14.11.2019 04:56 4,3 C 3,9 C 3,3 C 94 % 1000,8 hPa 0,0 l/m 0 min 0 min 0 W/m 25,7 km/h (4 Bft) 95,74 %
14.11.2019 04:58 4,3 C 3,9 C 3,3 C 94 % 1000,9 hPa 0,0 l/m 0 min 0 min 0 W/m 16,1 km/h (3 Bft) 95,74 %
14.11.2019 05:00 4,3 C 3,9 C 3,3 C 94 % 1000,8 hPa 0,0 l/m 0 min 0 min 0 W/m 19,3 km/h (3 Bft) 95,74 %
14.11.2019 05:02 4,3 C 3,9 C 3,3 C 94 % 1000,8 hPa 0,0 l/m 0 min 0 min 0 W/m 19,3 km/h (3 Bft) 97,92 %
14.11.2019 05:04 4,3 C 3,9 C 3,3 C 94 % 1000,7 hPa 0,0 l/m 0 min 0 min 0 W/m 22,5 km/h (4 Bft) 95,74 %
14.11.2019 05:06 4,3 C 3,3 C 3,3 C 94 % 1000,7 hPa 0,0 l/m 0 min 0 min 0 W/m 16,1 km/h (3 Bft) 95,74 %
14.11.2019 05:08 4,3 C 3,9 C 3,3 C 94 % 1000,7 hPa 0,0 l/m 0 min 0 min 0 W/m 22,5 km/h (4 Bft) 93,62 %
14.11.2019 05:10 4,3 C 3,9 C 3,3 C 94 % 1000,7 hPa 0,0 l/m 0 min 0 min 0 W/m 22,5 km/h (4 Bft) 95,74 %
14.11.2019 05:12 4,3 C 3,9 C 3,3 C 94 % 1000,7 hPa 0,0 l/m 0 min 0 min 0 W/m 22,5 km/h (4 Bft) 97,83 %
14.11.2019 05:14 4,3 C 3,9 C 3,3 C 94 % 1000,7 hPa 0,0 l/m 0 min 0 min 0 W/m 22,5 km/h (4 Bft) 97,87 %
14.11.2019 05:16 4,3 C 3,9 C 3,3 C 94 % 1000,6 hPa 0,0 l/m 0 min 0 min 0 W/m 19,3 km/h (3 Bft) 95,74 %
14.11.2019 05:18 4,3 C 3,9 C 3,3 C 94 % 1000,7 hPa 0,0 l/m 0 min 0 min 0 W/m 19,3 km/h (3 Bft) 97,87 %
14.11.2019 05:20 4,4 C 3,9 C 3,3 C 95 % 1000,7 hPa 0,0 l/m 0 min 0 min 0 W/m 22,5 km/h (4 Bft) 93,62 %
14.11.2019 05:22 4,4 C 3,9 C 3,3 C 95 % 1000,6 hPa 0,0 l/m 0 min 0 min 0 W/m 22,5 km/h (4 Bft) 97,87 %
14.11.2019 05:24 4,4 C 3,9 C 3,3 C 95 % 1000,6 hPa 0,0 l/m 0 min 0 min 0 W/m 25,7 km/h (4 Bft) 97,83 %
14.11.2019 05:26 4,4 C 3,9 C 3,3 C 95 % 1000,7 hPa 0,0 l/m 0 min 0 min 0 W/m 19,3 km/h (3 Bft) 97,87 %
14.11.2019 05:28 4,4 C 3,9 C 3,3 C 95 % 1000,6 hPa 0,0 l/m 0 min 0 min 0 W/m 25,7 km/h (4 Bft) 97,87 %
14.11.2019 05:30 4,5 C 3,9 C 3,3 C 95 % 1000,6 hPa 0,0 l/m 0 min 0 min 0 W/m 25,7 km/h (4 Bft) 97,87 %
14.11.2019 05:32 4,5 C 3,9 C 3,3 C 95 % 1000,6 hPa 0,0 l/m 0 min 0 min 0 W/m 16,1 km/h (3 Bft) 97,87 %
14.11.2019 05:34 4,5 C 3,9 C 3,3 C 95 % 1000,6 hPa 0,0 l/m 0 min 0 min 0 W/m 12,9 km/h (3 Bft) 53,49 %
14.11.2019 05:36 4,5 C 3,9 C 3,3 C 95 % 1000,6 hPa 0,0 l/m 0 min 0 min 0 W/m 22,5 km/h (4 Bft) 95,65 %
14.11.2019 05:38 4,5 C 3,9 C 3,3 C 95 % 1000,6 hPa 0,0 l/m 0 min 0 min 0 W/m 16,1 km/h (3 Bft) 97,87 %
14.11.2019 05:40 4,5 C 3,9 C 3,3 C 95 % 1000,6 hPa 0,0 l/m 0 min 0 min 0 W/m 19,3 km/h (3 Bft) 93,62 %
14.11.2019 05:42 4,5 C 3,9 C 3,3 C 95 % 1000,5 hPa 0,0 l/m 0 min 0 min 0 W/m 12,9 km/h (3 Bft) 95,74 %
14.11.2019 05:44 4,5 C 3,9 C 3,3 C 95 % 1000,6 hPa 0,0 l/m 0 min 0 min 0 W/m 16,1 km/h (3 Bft) 97,87 %
14.11.2019 05:46 4,6 C 3,9 C 3,3 C 95 % 1000,6 hPa 0,0 l/m 0 min 0 min 0 W/m 12,9 km/h (3 Bft) 97,92 %
14.11.2019 05:48 4,6 C 3,9 C 3,3 C 94 % 1000,6 hPa 0,0 l/m 0 min 0 min 0 W/m 25,7 km/h (4 Bft) 97,83 %
14.11.2019 05:50 4,6 C 3,9 C 3,3 C 94 % 1000,6 hPa 0,0 l/m 0 min 0 min 0 W/m 25,7 km/h (4 Bft) 97,87 %
14.11.2019 05:52 4,6 C 4,4 C 3,9 C 94 % 1000,7 hPa 0,0 l/m 0 min 0 min 0 W/m 19,3 km/h (3 Bft) 97,87 %
14.11.2019 05:54 4,6 C 4,4 C 3,9 C 94 % 1000,7 hPa 0,0 l/m 0 min 0 min 0 W/m 19,3 km/h (3 Bft) 97,14 %
14.11.2019 05:56 4,6 C 3,9 C 3,3 C 94 % 1000,7 hPa 0,0 l/m 0 min 0 min 0 W/m 19,3 km/h (3 Bft) 100,00 %
14.11.2019 05:58 4,6 C 4,4 C 3,9 C 94 % 1000,7 hPa 0,0 l/m 0 min 0 min 0 W/m 19,3 km/h (3 Bft) 93,62 %
14.11.2019 06:00 4,7 C 4,4 C 3,9 C 94 % 1000,7 hPa 0,0 l/m 0 min 0 min 0 W/m 29,0 km/h (5 Bft) 97,87 %
14.11.2019 06:02 4,7 C 4,4 C 3,9 C 94 % 1000,7 hPa 0,0 l/m 0 min 0 min 0 W/m 29,0 km/h (5 Bft) 95,65 %
14.11.2019 06:04 4,7 C 4,4 C 3,9 C 94 % 1000,7 hPa 0,0 l/m 0 min 0 min 0 W/m 29,0 km/h (5 Bft) 96,36 %
14.11.2019 06:08 4,8 C 4,4 C 3,9 C 94 % 1000,7 hPa 0,0 l/m 0 min 0 min 0 W/m 35,4 km/h (5 Bft) 96,81 %
14.11.2019 06:10 4,8 C 4,4 C 3,9 C 94 % 1000,6 hPa 0,0 l/m 0 min 0 min 0 W/m 29,0 km/h (5 Bft) 98,00 %
14.11.2019 06:12 4,8 C 4,4 C 3,9 C 94 % 1000,7 hPa 0,0 l/m 0 min 0 min 0 W/m 22,5 km/h (4 Bft) 95,74 %
14.11.2019 06:14 4,8 C 4,4 C 3,9 C 94 % 1000,6 hPa 0,0 l/m 0 min 0 min 0 W/m 22,5 km/h (4 Bft) 97,87 %
14.11.2019 06:16 4,8 C 4,4 C 3,9 C 94 % 1000,6 hPa 0,0 l/m 0 min 0 min 0 W/m 22,5 km/h (4 Bft) 97,14 %
14.11.2019 06:18 4,9 C 4,4 C 3,9 C 94 % 1000,7 hPa 0,0 l/m 0 min 0 min 0 W/m 29,0 km/h (5 Bft) 96,36 %
14.11.2019 06:20 4,9 C 4,4 C 3,9 C 94 % 1000,8 hPa 0,0 l/m 0 min 0 min 0 W/m 22,5 km/h (4 Bft) 95,74 %
14.11.2019 06:22 4,9 C 4,4 C 3,9 C 94 % 1000,8 hPa 0,0 l/m 0 min 0 min 0 W/m 22,5 km/h (4 Bft) 97,87 %
14.11.2019 06:24 4,9 C 4,4 C 3,9 C 94 % 1000,8 hPa 0,0 l/m 0 min 0 min 0 W/m 25,7 km/h (4 Bft) 97,83 %
14.11.2019 06:26 4,9 C 4,4 C 3,9 C 94 % 1000,8 hPa 0,0 l/m 0 min 0 min 0 W/m 25,7 km/h (4 Bft) 98,00 %
14.11.2019 06:28 4,9 C 4,4 C 3,9 C 94 % 1000,7 hPa 0,0 l/m 0 min 0 min 0 W/m 22,5 km/h (4 Bft) 97,92 %
14.11.2019 06:30 4,9 C 4,4 C 3,9 C 94 % 1000,7 hPa 0,0 l/m 0 min 0 min 0 W/m 16,1 km/h (3 Bft) 97,87 %
14.11.2019 06:32 4,9 C 4,4 C 3,9 C 94 % 1000,8 hPa 0,0 l/m 0 min 0 min 0 W/m 25,7 km/h (4 Bft) 95,74 %
14.11.2019 06:34 4,9 C 4,4 C 3,9 C 94 % 1000,8 hPa 0,0 l/m 0 min 0 min 0 W/m 25,7 km/h (4 Bft) 97,83 %
14.11.2019 06:36 5,0 C 4,4 C 3,9 C 94 % 1000,9 hPa 0,0 l/m 0 min 0 min 0 W/m 19,3 km/h (3 Bft) 93,62 %
14.11.2019 06:38 5,0 C 4,4 C 3,9 C 94 % 1001,0 hPa 0,0 l/m 0 min 0 min 0 W/m 16,1 km/h (3 Bft) 95,74 %
14.11.2019 06:40 5,0 C 4,4 C 3,9 C 94 % 1000,9 hPa 0,0 l/m 0 min 0 min 0 W/m 22,5 km/h (4 Bft) 100,00 %
14.11.2019 06:42 5,0 C 4,4 C 3,9 C 94 % 1001,0 hPa 0,0 l/m 0 min 0 min 0 W/m 16,1 km/h (3 Bft) 95,74 %
14.11.2019 06:44 5,0 C 4,4 C 3,9 C 93 % 1001,0 hPa 0,0 l/m 0 min 0 min 0 W/m 16,1 km/h (3 Bft) 100,00 %
14.11.2019 06:46 5,0 C 4,4 C 3,9 C 93 % 1001,2 hPa 0,0 l/m 0 min 0 min 0 W/m 12,9 km/h (3 Bft) 100,00 %
14.11.2019 06:48 5,0 C 4,4 C 3,9 C 93 % 1001,1 hPa 0,0 l/m 0 min 0 min 0 W/m 12,9 km/h (3 Bft) 100,00 %
14.11.2019 06:50 5,0 C 4,4 C 3,9 C 93 % 1001,2 hPa 0,0 l/m 0 min 0 min 0 W/m 22,5 km/h (4 Bft) 100,00 %
14.11.2019 06:52 5,0 C 4,4 C 3,9 C 93 % 1001,1 hPa 0,0 l/m 0 min 0 min 0 W/m 12,9 km/h (3 Bft) 97,87 %
14.11.2019 06:54 5,0 C 4,4 C 3,9 C 93 % 1001,0 hPa 0,0 l/m 0 min 0 min 0 W/m 16,1 km/h (3 Bft) 100,00 %
14.11.2019 06:56 5,0 C 4,4 C 3,9 C 93 % 1001,0 hPa 0,0 l/m 0 min 0 min 0 W/m 22,5 km/h (4 Bft) 100,00 %
14.11.2019 06:58 5,0 C 4,4 C 3,9 C 93 % 1001,1 hPa 0,0 l/m 0 min 0 min 0 W/m 25,7 km/h (4 Bft) 97,83 %
14.11.2019 07:00 5,0 C 4,4 C 3,9 C 93 % 1001,1 hPa 0,0 l/m 0 min 0 min 0 W/m 22,5 km/h (4 Bft) 97,87 %
14.11.2019 07:02 5,0 C 4,4 C 3,9 C 93 % 1001,1 hPa 0,0 l/m 0 min 0 min 0 W/m 22,5 km/h (4 Bft) 100,00 %
14.11.2019 07:04 5,0 C 4,4 C 3,9 C 93 % 1001,1 hPa 0,0 l/m 0 min 0 min 0 W/m 19,3 km/h (3 Bft) 97,87 %
14.11.2019 07:06 5,1 C 4,4 C 3,9 C 93 % 1001,1 hPa 0,0 l/m 0 min 0 min 0 W/m 19,3 km/h (3 Bft) 97,87 %
14.11.2019 07:08 5,1 C 4,4 C 3,9 C 93 % 1001,1 hPa 0,0 l/m 0 min 0 min 0 W/m 12,9 km/h (3 Bft) 97,92 %
14.11.2019 07:10 5,1 C 4,4 C 3,9 C 93 % 1001,0 hPa 0,0 l/m 0 min 0 min 0 W/m 22,5 km/h (4 Bft) 100,00 %
14.11.2019 07:12 5,1 C 4,4 C 3,9 C 93 % 1001,1 hPa 0,0 l/m 0 min 0 min 0 W/m 16,1 km/h (3 Bft) 100,00 %
14.11.2019 07:14 5,1 C 4,4 C 3,9 C 93 % 1001,1 hPa 0,0 l/m 0 min 0 min 0 W/m 25,7 km/h (4 Bft) 100,00 %
14.11.2019 07:16 5,1 C 4,4 C 3,9 C 93 % 1001,2 hPa 0,0 l/m 0 min 0 min 0 W/m 25,7 km/h (4 Bft) 97,87 %
14.11.2019 07:18 5,1 C 4,4 C 3,9 C 93 % 1001,2 hPa 0,0 l/m 0 min 0 min 0 W/m 22,5 km/h (4 Bft) 97,87 %
14.11.2019 07:20 5,1 C 4,4 C 3,9 C 93 % 1001,2 hPa 0,0 l/m 0 min 0 min 0 W/m 19,3 km/h (3 Bft) 97,83 %
14.11.2019 07:22 5,1 C 4,4 C 3,9 C 93 % 1001,2 hPa 0,0 l/m 0 min 0 min 0 W/m 22,5 km/h (4 Bft) 97,87 %
14.11.2019 07:24 5,1 C 4,4 C 3,9 C 93 % 1001,3 hPa 0,0 l/m 0 min 0 min 0 W/m 19,3 km/h (3 Bft) 97,87 %
14.11.2019 07:26 5,2 C 4,4 C 3,9 C 93 % 1001,3 hPa 0,0 l/m 0 min 0 min 0 W/m 22,5 km/h (4 Bft) 93,62 %
14.11.2019 07:28 5,2 C 4,4 C 3,9 C 93 % 1001,3 hPa 0,0 l/m 0 min 0 min 0 W/m 22,5 km/h (4 Bft) 95,74 %
14.11.2019 07:30 5,2 C 4,4 C 3,9 C 93 % 1001,4 hPa 0,0 l/m 0 min 0 min 0 W/m 12,9 km/h (3 Bft) 97,87 %
14.11.2019 07:32 5,2 C 4,4 C 3,9 C 93 % 1001,3 hPa 0,0 l/m 0 min 0 min 0 W/m 12,9 km/h (3 Bft) 95,65 %
14.11.2019 07:34 5,2 C 4,4 C 3,9 C 93 % 1001,2 hPa 0,0 l/m 0 min 0 min 0 W/m 16,1 km/h (3 Bft) 97,87 %
14.11.2019 07:36 5,2 C 4,4 C 3,9 C 92 % 1001,3 hPa 0,0 l/m 0 min 0 min 0 W/m 12,9 km/h (3 Bft) 97,87 %
14.11.2019 07:38 5,2 C 4,4 C 3,9 C 92 % 1001,3 hPa 0,0 l/m 0 min 0 min 0 W/m 16,1 km/h (3 Bft) 97,87 %
14.11.2019 07:40 5,2 C 4,4 C 3,9 C 92 % 1001,4 hPa 0,0 l/m 0 min 0 min 0 W/m 16,1 km/h (3 Bft) 97,87 %
14.11.2019 07:42 5,2 C 4,4 C 3,9 C 92 % 1001,4 hPa 0,0 l/m 0 min 0 min 0 W/m 22,5 km/h (4 Bft) 97,87 %
14.11.2019 07:44 5,2 C 4,4 C 3,9 C 92 % 1001,5 hPa 0,0 l/m 0 min 0 min 0 W/m 29,0 km/h (5 Bft) 97,83 %
14.11.2019 07:46 5,2 C 4,4 C 3,9 C 92 % 1001,4 hPa 0,0 l/m 0 min 0 min 0 W/m 22,5 km/h (4 Bft) 97,87 %
14.11.2019 07:48 5,2 C 4,4 C 3,9 C 92 % 1001,4 hPa 0,0 l/m 0 min 0 min 0 W/m 16,1 km/h (3 Bft) 95,74 %
14.11.2019 07:50 5,2 C 4,4 C 3,9 C 92 % 1001,5 hPa 0,0 l/m 0 min 0 min 0 W/m 19,3 km/h (3 Bft) 97,87 %
14.11.2019 07:52 5,2 C 4,4 C 3,9 C 92 % 1001,5 hPa 0,0 l/m 0 min 0 min 0 W/m 22,5 km/h (4 Bft) 55,32 %
14.11.2019 07:54 5,2 C 4,4 C 3,9 C 92 % 1001,4 hPa 0,0 l/m 0 min 0 min 3 W/m 16,1 km/h (3 Bft) 100,00 %
14.11.2019 07:56 5,2 C 4,4 C 3,9 C 92 % 1001,4 hPa 0,0 l/m 0 min 0 min 6 W/m 22,5 km/h (4 Bft) 97,87 %
14.11.2019 07:58 5,2 C 4,4 C 3,9 C 92 % 1001,5 hPa 0,0 l/m 0 min 0 min 7 W/m 29,0 km/h (5 Bft) 97,87 %
14.11.2019 08:00 5,1 C 4,4 C 3,9 C 92 % 1001,4 hPa 0,0 l/m 0 min 0 min 8 W/m 25,7 km/h (4 Bft) 95,74 %
14.11.2019 08:02 5,1 C 4,4 C 3,9 C 92 % 1001,5 hPa 0,0 l/m 0 min 0 min 9 W/m 25,7 km/h (4 Bft) 95,74 %
14.11.2019 08:04 5,1 C 4,4 C 3,9 C 92 % 1001,4 hPa 0,0 l/m 0 min 0 min 9 W/m 38,6 km/h (5 Bft) 97,87 %
14.11.2019 08:06 5,1 C 5,0 C 4,4 C 92 % 1001,5 hPa 0,0 l/m 0 min 0 min 9 W/m 29,0 km/h (5 Bft) 97,83 %
14.11.2019 08:08 5,2 C 5,0 C 4,4 C 92 % 1001,5 hPa 0,0 l/m 0 min 0 min 9 W/m 25,7 km/h (4 Bft) 100,00 %
14.11.2019 08:10 5,2 C 5,0 C 4,4 C 92 % 1001,6 hPa 0,0 l/m 0 min 0 min 9 W/m 38,6 km/h (5 Bft) 97,87 %
14.11.2019 08:12 5,2 C 5,0 C 4,4 C 92 % 1001,6 hPa 0,0 l/m 0 min 0 min 10 W/m 29,0 km/h (5 Bft) 97,87 %
14.11.2019 08:14 5,2 C 4,4 C 3,9 C 92 % 1001,6 hPa 0,0 l/m 0 min 0 min 11 W/m 25,7 km/h (4 Bft) 100,00 %
14.11.2019 08:16 5,2 C 4,4 C 3,9 C 92 % 1001,7 hPa 0,0 l/m 0 min 0 min 12 W/m 22,5 km/h (4 Bft) 100,00 %
14.11.2019 08:18 5,2 C 4,4 C 3,9 C 92 % 1001,7 hPa 0,0 l/m 0 min 0 min 12 W/m 22,5 km/h (4 Bft) 100,00 %
14.11.2019 08:20 5,2 C 4,4 C 3,9 C 92 % 1001,7 hPa 0,0 l/m 0 min 0 min 14 W/m 19,3 km/h (3 Bft) 100,00 %
14.11.2019 08:22 5,2 C 4,4 C 3,9 C 92 % 1001,8 hPa 0,0 l/m 0 min 0 min 14 W/m 16,1 km/h (3 Bft) 97,87 %
14.11.2019 08:24 5,2 C 4,4 C 3,9 C 92 % 1001,8 hPa 0,0 l/m 0 min 0 min 15 W/m 22,5 km/h (4 Bft) 97,87 %
14.11.2019 08:26 5,2 C 4,4 C 3,9 C 92 % 1001,9 hPa 0,0 l/m 0 min 0 min 16 W/m 22,5 km/h (4 Bft) 97,87 %
14.11.2019 08:28 5,2 C 4,4 C 3,9 C 91 % 1001,8 hPa 0,0 l/m 0 min 0 min 16 W/m 22,5 km/h (4 Bft) 97,87 %
14.11.2019 08:30 5,2 C 5,0 C 3,9 C 91 % 1001,9 hPa 0,0 l/m 0 min 0 min 18 W/m 22,5 km/h (4 Bft) 95,65 %
14.11.2019 08:32 5,2 C 5,0 C 4,4 C 91 % 1001,9 hPa 0,0 l/m 0 min 0 min 18 W/m 32,2 km/h (5 Bft) 97,87 %
14.11.2019 08:34 5,2 C 5,0 C 4,4 C 91 % 1001,9 hPa 0,0 l/m 0 min 0 min 21 W/m 35,4 km/h (5 Bft) 95,74 %
14.11.2019 08:36 5,2 C 5,0 C 4,4 C 91 % 1001,9 hPa 0,0 l/m 0 min 0 min 25 W/m 19,3 km/h (3 Bft) 95,74 %
14.11.2019 08:38 5,2 C 5,0 C 4,4 C 91 % 1001,9 hPa 0,0 l/m 0 min 0 min 29 W/m 29,0 km/h (5 Bft) 91,49 %
14.11.2019 08:40 5,3 C 5,0 C 4,4 C 91 % 1001,9 hPa 0,0 l/m 0 min 0 min 31 W/m 25,7 km/h (4 Bft) 95,65 %
14.11.2019 08:42 5,3 C 5,0 C 4,4 C 91 % 1002,0 hPa 0,0 l/m 0 min 0 min 34 W/m 22,5 km/h (4 Bft) 95,74 %
14.11.2019 08:44 5,3 C 5,0 C 4,4 C 91 % 1001,9 hPa 0,0 l/m 0 min 0 min 35 W/m 16,1 km/h (3 Bft) 95,74 %
14.11.2019 08:46 5,3 C 5,0 C 4,4 C 91 % 1001,9 hPa 0,0 l/m 0 min 0 min 35 W/m 16,1 km/h (3 Bft) 93,62 %
14.11.2019 08:48 5,3 C 5,0 C 4,4 C 91 % 1001,9 hPa 0,0 l/m 0 min 0 min 35 W/m 25,7 km/h (4 Bft) 95,74 %
14.11.2019 08:50 5,4 C 5,0 C 4,4 C 91 % 1001,9 hPa 0,0 l/m 0 min 0 min 33 W/m 25,7 km/h (4 Bft) 95,74 %
14.11.2019 08:52 5,4 C 5,6 C 4,4 C 91 % 1001,9 hPa 0,0 l/m 0 min 0 min 33 W/m 35,4 km/h (5 Bft) 95,65 %
14.11.2019 08:54 5,5 C 5,6 C 4,4 C 90 % 1002,0 hPa 0,0 l/m 0 min 0 min 36 W/m 29,0 km/h (5 Bft) 91,49 %
14.11.2019 08:56 5,5 C 5,6 C 4,4 C 90 % 1002,0 hPa 0,0 l/m 0 min 0 min 38 W/m 22,5 km/h (4 Bft) 95,74 %
14.11.2019 08:58 5,6 C 5,6 C 4,4 C 90 % 1002,0 hPa 0,0 l/m 0 min 0 min 40 W/m 25,7 km/h (4 Bft) 95,74 %
14.11.2019 09:00 5,6 C 5,6 C 4,4 C 90 % 1002,0 hPa 0,0 l/m 0 min 0 min 42 W/m 22,5 km/h (4 Bft) 95,74 %
14.11.2019 09:02 5,6 C 5,6 C 4,4 C 90 % 1001,9 hPa 0,0 l/m 0 min 0 min 42 W/m 16,1 km/h (3 Bft) 95,74 %
14.11.2019 09:04 5,6 C 5,6 C 4,4 C 90 % 1001,8 hPa 0,0 l/m 0 min 0 min 40 W/m 38,6 km/h (5 Bft) 93,48 %
14.11.2019 09:06 5,7 C 5,6 C 4,4 C 90 % 1001,9 hPa 0,0 l/m 0 min 0 min 42 W/m 22,5 km/h (4 Bft) 95,74 %
14.11.2019 09:08 5,7 C 5,6 C 4,4 C 90 % 1001,9 hPa 0,0 l/m 0 min 0 min 44 W/m 22,5 km/h (4 Bft) 95,74 %
14.11.2019 09:10 5,7 C 5,6 C 4,4 C 90 % 1001,9 hPa 0,0 l/m 0 min 0 min 44 W/m 25,7 km/h (4 Bft) 95,74 %
14.11.2019 09:12 5,7 C 5,0 C 4,4 C 90 % 1002,0 hPa 0,0 l/m 0 min 0 min 42 W/m 22,5 km/h (4 Bft) 91,49 %
14.11.2019 09:14 5,7 C 5,0 C 4,4 C 90 % 1002,1 hPa 0,0 l/m 0 min 0 min 39 W/m 41,8 km/h (6 Bft) 95,74 %
14.11.2019 09:16 5,7 C 5,0 C 4,4 C 90 % 1002,0 hPa 0,0 l/m 0 min 0 min 36 W/m 19,3 km/h (3 Bft) 100,00 %
14.11.2019 09:18 5,7 C 5,0 C 4,4 C 89 % 1002,1 hPa 0,0 l/m 0 min 0 min 36 W/m 22,5 km/h (4 Bft) 100,00 %
14.11.2019 09:20 5,7 C 5,0 C 4,4 C 89 % 1002,0 hPa 0,0 l/m 0 min 0 min 38 W/m 19,3 km/h (3 Bft) 100,00 %
14.11.2019 09:22 5,7 C 5,0 C 4,4 C 89 % 1002,0 hPa 0,0 l/m 0 min 0 min 39 W/m 19,3 km/h (3 Bft) 97,87 %
14.11.2019 09:24 5,7 C 5,6 C 4,4 C 89 % 1002,1 hPa 0,0 l/m 0 min 0 min 38 W/m 25,7 km/h (4 Bft) 97,87 %
14.11.2019 09:26 5,7 C 5,6 C 4,4 C 89 % 1002,1 hPa 0,0 l/m 0 min 0 min 37 W/m 22,5 km/h (4 Bft) 100,00 %
14.11.2019 09:28 5,7 C 5,6 C 4,4 C 89 % 1002,1 hPa 0,0 l/m 0 min 0 min 37 W/m 16,1 km/h (3 Bft) 100,00 %
14.11.2019 09:30 5,7 C 5,6 C 4,4 C 89 % 1002,1 hPa 0,0 l/m 0 min 0 min 44 W/m 22,5 km/h (4 Bft) 100,00 %
14.11.2019 09:32 5,7 C 5,6 C 5,0 C 89 % 1002,1 hPa 0,0 l/m 0 min 0 min 49 W/m 29,0 km/h (5 Bft) 97,87 %
14.11.2019 09:34 5,7 C 5,6 C 5,0 C 90 % 1002,2 hPa 0,0 l/m 0 min 0 min 56 W/m 16,1 km/h (3 Bft) 100,00 %
14.11.2019 09:36 5,7 C 5,6 C 5,0 C 90 % 1002,1 hPa 0,0 l/m 0 min 0 min 63 W/m 35,4 km/h (5 Bft) 97,87 %
14.11.2019 09:38 5,8 C 5,6 C 5,0 C 90 % 1002,1 hPa 0,0 l/m 0 min 0 min 74 W/m 35,4 km/h (5 Bft) 100,00 %
14.11.2019 09:40 5,8 C 5,6 C 5,0 C 89 % 1002,1 hPa 0,0 l/m 0 min 0 min 78 W/m 32,2 km/h (5 Bft) 100,00 %
14.11.2019 09:42 5,8 C 5,6 C 5,0 C 89 % 1002,1 hPa 0,0 l/m 0 min 0 min 76 W/m 25,7 km/h (4 Bft) 100,00 %
14.11.2019 09:44 5,8 C 5,6 C 5,0 C 89 % 1002,1 hPa 0,0 l/m 0 min 0 min 76 W/m 22,5 km/h (4 Bft) 100,00 %
14.11.2019 09:46 5,9 C 6,1 C 5,0 C 89 % 1002,1 hPa 0,0 l/m 0 min 0 min 81 W/m 16,1 km/h (3 Bft) 97,87 %
14.11.2019 09:48 5,9 C 6,1 C 5,0 C 89 % 1002,1 hPa 0,0 l/m 0 min 0 min 87 W/m 19,3 km/h (3 Bft) 100,00 %
14.11.2019 09:50 5,9 C 6,1 C 5,0 C 89 % 1002,1 hPa 0,0 l/m 0 min 0 min 91 W/m 41,8 km/h (6 Bft) 100,00 %
14.11.2019 09:52 5,9 C 6,1 C 5,0 C 89 % 1002,1 hPa 0,0 l/m 0 min 0 min 91 W/m 25,7 km/h (4 Bft) 100,00 %
14.11.2019 09:54 5,9 C 6,1 C 5,6 C 89 % 1002,1 hPa 0,0 l/m 0 min 0 min 87 W/m 19,3 km/h (3 Bft) 97,87 %
14.11.2019 09:56 6,0 C 6,1 C 5,6 C 89 % 1002,1 hPa 0,0 l/m 0 min 0 min 83 W/m 29,0 km/h (5 Bft) 97,87 %
14.11.2019 09:58 6,0 C 6,1 C 5,0 C 89 % 1002,1 hPa 0,0 l/m 0 min 0 min 81 W/m 25,7 km/h (4 Bft) 100,00 %
14.11.2019 10:00 6,1 C 6,1 C 5,0 C 89 % 1002,1 hPa 0,0 l/m 0 min 0 min 77 W/m 22,5 km/h (4 Bft) 100,00 %
14.11.2019 10:02 6,1 C 6,1 C 5,0 C 89 % 1002,1 hPa 0,0 l/m 0 min 0 min 74 W/m 25,7 km/h (4 Bft) 100,00 %
14.11.2019 10:04 6,1 C 6,1 C 5,6 C 89 % 1002,1 hPa 0,0 l/m 0 min 0 min 70 W/m 25,7 km/h (4 Bft) 93,62 %
14.11.2019 10:06 6,1 C 6,1 C 5,0 C 89 % 1002,1 hPa 0,0 l/m 0 min 0 min 69 W/m 25,7 km/h (4 Bft) 97,87 %
14.11.2019 10:08 6,1 C 6,1 C 5,0 C 88 % 1002,1 hPa 0,0 l/m 0 min 0 min 68 W/m 22,5 km/h (4 Bft) 97,87 %
14.11.2019 10:10 6,1 C 6,1 C 5,0 C 88 % 1002,1 hPa 0,0 l/m 0 min 0 min 66 W/m 29,0 km/h (5 Bft) 100,00 %
14.11.2019 10:12 6,1 C 6,1 C 5,0 C 88 % 1002,0 hPa 0,0 l/m 0 min 0 min 66 W/m 29,0 km/h (5 Bft) 93,62 %
14.11.2019 10:14 6,2 C 6,1 C 5,0 C 88 % 1002,0 hPa 0,0 l/m 0 min 0 min 69 W/m 35,4 km/h (5 Bft) 97,83 %
14.11.2019 10:16 6,2 C 6,1 C 5,6 C 88 % 1002,0 hPa 0,0 l/m 0 min 0 min 75 W/m 22,5 km/h (4 Bft) 95,74 %
14.11.2019 10:18 6,2 C 6,1 C 5,6 C 88 % 1002,0 hPa 0,0 l/m 0 min 0 min 82 W/m 25,7 km/h (4 Bft) 95,74 %
14.11.2019 10:20 6,2 C 6,1 C 5,6 C 88 % 1002,0 hPa 0,0 l/m 0 min 0 min 81 W/m 25,7 km/h (4 Bft) 97,87 %
14.11.2019 10:22 6,2 C 6,1 C 5,6 C 88 % 1002,1 hPa 0,0 l/m 0 min 0 min 75 W/m 25,7 km/h (4 Bft) 95,74 %
14.11.2019 10:24 6,2 C 6,1 C 5,6 C 88 % 1002,0 hPa 0,0 l/m 0 min 0 min 69 W/m 19,3 km/h (3 Bft) 97,83 %
14.11.2019 10:26 6,2 C 6,1 C 5,6 C 88 % 1002,0 hPa 0,0 l/m 0 min 0 min 67 W/m 19,3 km/h (3 Bft) 97,87 %
14.11.2019 10:28 6,2 C 6,1 C 5,6 C 88 % 1002,1 hPa 0,0 l/m 0 min 0 min 73 W/m 22,5 km/h (4 Bft) 97,87 %
14.11.2019 10:30 6,3 C 6,1 C 5,6 C 88 % 1002,1 hPa 0,0 l/m 0 min 0 min 81 W/m 19,3 km/h (3 Bft) 97,87 %
14.11.2019 10:32 6,3 C 6,1 C 5,6 C 88 % 1002,1 hPa 0,0 l/m 0 min 0 min 84 W/m 29,0 km/h (5 Bft) 95,74 %
14.11.2019 10:34 6,3 C 6,1 C 5,6 C 88 % 1002,1 hPa 0,0 l/m 0 min 0 min 83 W/m 16,1 km/h (3 Bft) 97,87 %
14.11.2019 10:36 6,3 C 6,1 C 5,6 C 88 % 1002,1 hPa 0,0 l/m 0 min 0 min 82 W/m 19,3 km/h (3 Bft) 95,65 %
14.11.2019 10:38 6,3 C 6,1 C 5,6 C 88 % 1002,1 hPa 0,0 l/m 0 min 0 min 84 W/m 22,5 km/h (4 Bft) 97,87 %
14.11.2019 10:40 6,3 C 6,1 C 5,6 C 88 % 1002,0 hPa 0,0 l/m 0 min 0 min 88 W/m 19,3 km/h (3 Bft) 97,87 %
14.11.2019 10:42 6,4 C 6,1 C 5,6 C 88 % 1002,0 hPa 0,0 l/m 0 min 0 min 88 W/m 19,3 km/h (3 Bft) 97,87 %
14.11.2019 10:44 6,4 C 6,1 C 5,6 C 88 % 1002,1 hPa 0,0 l/m 0 min 0 min 87 W/m 22,5 km/h (4 Bft) 95,74 %
14.11.2019 10:46 6,4 C 6,7 C 5,6 C 88 % 1002,1 hPa 0,0 l/m 0 min 0 min 84 W/m 16,1 km/h (3 Bft) 95,74 %
14.11.2019 10:48 6,4 C 6,7 C 5,6 C 88 % 1002,1 hPa 0,0 l/m 0 min 0 min 82 W/m 22,5 km/h (4 Bft) 97,83 %
14.11.2019 10:50 6,5 C 6,7 C 5,6 C 88 % 1002,1 hPa 0,0 l/m 0 min 0 min 76 W/m 22,5 km/h (4 Bft) 97,87 %
14.11.2019 10:52 6,5 C 6,7 C 5,6 C 87 % 1002,1 hPa 0,0 l/m 0 min 0 min 72 W/m 19,3 km/h (3 Bft) 97,87 %
14.11.2019 10:54 6,5 C 6,1 C 5,6 C 87 % 1002,2 hPa 0,0 l/m 0 min 0 min 72 W/m 25,7 km/h (4 Bft) 97,87 %
14.11.2019 10:56 6,5 C 6,1 C 5,6 C 87 % 1002,1 hPa 0,0 l/m 0 min 0 min 71 W/m 38,6 km/h (5 Bft) 100,00 %
14.11.2019 10:58 6,5 C 6,1 C 5,6 C 87 % 1002,1 hPa 0,0 l/m 0 min 0 min 70 W/m 29,0 km/h (5 Bft) 95,74 %
14.11.2019 11:00 6,5 C 6,1 C 5,6 C 87 % 1002,2 hPa 0,0 l/m 0 min 0 min 66 W/m 25,7 km/h (4 Bft) 95,65 %
14.11.2019 11:02 6,6 C 6,1 C 5,6 C 87 % 1002,2 hPa 0,0 l/m 0 min 0 min 62 W/m 16,1 km/h (3 Bft) 95,74 %
14.11.2019 11:04 6,6 C 6,1 C 5,6 C 87 % 1002,3 hPa 0,0 l/m 0 min 0 min 62 W/m 22,5 km/h (4 Bft) 95,74 %
14.11.2019 11:06 6,6 C 6,7 C 5,6 C 87 % 1002,4 hPa 0,0 l/m 0 min 0 min 66 W/m 19,3 km/h (3 Bft) 95,74 %
14.11.2019 11:08 6,6 C 6,1 C 5,6 C 87 % 1002,3 hPa 0,0 l/m 0 min 0 min 72 W/m 22,5 km/h (4 Bft) 97,87 %
14.11.2019 11:10 6,6 C 6,1 C 5,6 C 87 % 1002,3 hPa 0,0 l/m 0 min 0 min 73 W/m 22,5 km/h (4 Bft) 97,87 %
14.11.2019 11:12 6,6 C 6,1 C 5,6 C 86 % 1002,3 hPa 0,0 l/m 0 min 0 min 68 W/m 16,1 km/h (3 Bft) 97,83 %
14.11.2019 11:14 6,7 C 6,7 C 5,6 C 87 % 1002,3 hPa 0,0 l/m 0 min 0 min 65 W/m 12,9 km/h (3 Bft) 95,74 %
14.11.2019 11:16 6,6 C 6,7 C 5,6 C 87 % 1002,3 hPa 0,0 l/m 0 min 0 min 66 W/m 22,5 km/h (4 Bft) 97,87 %
14.11.2019 11:18 6,7 C 6,7 C 5,6 C 87 % 1002,4 hPa 0,0 l/m 0 min 0 min 70 W/m 19,3 km/h (3 Bft) 97,87 %
14.11.2019 11:20 6,7 C 6,7 C 5,6 C 87 % 1002,4 hPa 0,0 l/m 0 min 0 min 74 W/m 19,3 km/h (3 Bft) 95,74 %
14.11.2019 11:22 6,7 C 6,7 C 5,6 C 87 % 1002,4 hPa 0,0 l/m 0 min 0 min 78 W/m 25,7 km/h (4 Bft) 97,87 %
14.11.2019 11:24 6,7 C 6,7 C 5,6 C 86 % 1002,5 hPa 0,0 l/m 0 min 0 min 84 W/m 22,5 km/h (4 Bft) 97,83 %
14.11.2019 11:26 6,7 C 6,7 C 6,1 C 86 % 1002,5 hPa 0,0 l/m 0 min 0 min 92 W/m 19,3 km/h (3 Bft) 97,87 %
14.11.2019 11:28 6,7 C 6,7 C 6,1 C 86 % 1002,6 hPa 0,0 l/m 0 min 0 min 101 W/m 22,5 km/h (4 Bft) 95,74 %
14.11.2019 11:30 6,7 C 6,7 C 6,1 C 86 % 1002,6 hPa 0,0 l/m 0 min 0 min 113 W/m 25,7 km/h (4 Bft) 93,62 %
14.11.2019 11:32 6,7 C 6,7 C 6,1 C 86 % 1002,6 hPa 0,0 l/m 0 min 0 min 124 W/m 25,7 km/h (4 Bft) 95,74 %
14.11.2019 11:34 6,8 C 6,7 C 6,1 C 86 % 1002,6 hPa 0,0 l/m 0 min 0 min 130 W/m 32,2 km/h (5 Bft) 95,74 %
14.11.2019 11:36 6,8 C 7,2 C 6,1 C 86 % 1002,6 hPa 0,0 l/m 0 min 0 min 137 W/m 22,5 km/h (4 Bft) 95,65 %
14.11.2019 11:38 6,8 C 7,2 C 6,1 C 86 % 1002,6 hPa 0,0 l/m 0 min 0 min 149 W/m 29,0 km/h (5 Bft) 95,74 %
14.11.2019 11:40 6,8 C 7,2 C 6,7 C 86 % 1002,6 hPa 0,0 l/m 0 min 0 min 157 W/m 22,5 km/h (4 Bft) 95,74 %
14.11.2019 11:42 6,9 C 7,2 C 6,7 C 86 % 1002,5 hPa 0,0 l/m 0 min 0 min 162 W/m 22,5 km/h (4 Bft) 97,87 %
14.11.2019 11:44 6,9 C 7,8 C 6,7 C 85 % 1002,5 hPa 0,0 l/m 0 min 0 min 165 W/m 22,5 km/h (4 Bft) 97,87 %
14.11.2019 11:46 6,9 C 7,8 C 6,7 C 85 % 1002,5 hPa 0,0 l/m 2 min 0 min 202 W/m 19,3 km/h (3 Bft) 97,83 %
14.11.2019 11:48 7,0 C 7,8 C 6,7 C 85 % 1002,5 hPa 0,0 l/m 2 min 0 min 216 W/m 25,7 km/h (4 Bft) 95,74 %
14.11.2019 11:50 7,1 C 8,3 C 6,7 C 85 % 1002,5 hPa 0,0 l/m 2 min 0 min 213 W/m 22,5 km/h (4 Bft) 97,87 %
14.11.2019 11:52 7,1 C 8,3 C 6,7 C 85 % 1002,5 hPa 0,0 l/m 2 min 0 min 222 W/m 25,7 km/h (4 Bft) 97,87 %
14.11.2019 11:54 7,2 C 8,3 C 6,7 C 85 % 1002,4 hPa 0,0 l/m 2 min 0 min 232 W/m 22,5 km/h (4 Bft) 97,87 %
14.11.2019 11:56 7,2 C 8,9 C 6,7 C 85 % 1002,3 hPa 0,0 l/m 2 min 0 min 270 W/m 25,7 km/h (4 Bft) 97,87 %
14.11.2019 11:58 7,3 C 9,4 C 7,2 C 85 % 1002,3 hPa 0,0 l/m 2 min 0 min 340 W/m 19,3 km/h (3 Bft) 97,83 %
14.11.2019 12:00 7,3 C 9,4 C 7,2 C 85 % 1002,4 hPa 0,0 l/m 2 min 0 min 348 W/m 29,0 km/h (5 Bft) 95,74 %
14.11.2019 12:02 7,4 C 9,4 C 7,2 C 84 % 1002,5 hPa 0,0 l/m 2 min 0 min 289 W/m 25,7 km/h (4 Bft) 97,87 %
14.11.2019 12:04 7,5 C 10,0 C 7,2 C 84 % 1002,5 hPa 0,0 l/m 2 min 0 min 320 W/m 29,0 km/h (5 Bft) 97,87 %
14.11.2019 12:08 7,6 C 10,6 C 7,2 C 84 % 1002,6 hPa 0,0 l/m 4 min 0 min 287 W/m 22,5 km/h (4 Bft) 97,62 %
14.11.2019 12:10 7,7 C 10,6 C 7,2 C 83 % 1002,6 hPa 0,0 l/m 2 min 0 min 346 W/m 22,5 km/h (4 Bft) 97,87 %
14.11.2019 12:12 7,8 C 11,1 C 7,2 C 83 % 1002,6 hPa 0,0 l/m 2 min 0 min 356 W/m 16,1 km/h (3 Bft) 95,74 %
14.11.2019 12:14 7,8 C 10,0 C 7,2 C 83 % 1002,5 hPa 0,0 l/m 2 min 0 min 280 W/m 16,1 km/h (3 Bft) 97,83 %
14.11.2019 12:16 7,9 C 9,4 C 7,2 C 83 % 1002,5 hPa 0,0 l/m 2 min 0 min 206 W/m 29,0 km/h (5 Bft) 100,00 %
14.11.2019 12:18 7,9 C 8,9 C 7,2 C 82 % 1002,5 hPa 0,0 l/m 2 min 0 min 199 W/m 25,7 km/h (4 Bft) 97,87 %
14.11.2019 12:20 7,9 C 8,9 C 7,2 C 82 % 1002,6 hPa 0,0 l/m 2 min 0 min 203 W/m 22,5 km/h (4 Bft) 100,00 %
14.11.2019 12:22 7,9 C 8,9 C 7,2 C 82 % 1002,5 hPa 0,0 l/m 0 min 0 min 160 W/m 29,0 km/h (5 Bft) 100,00 %
14.11.2019 12:24 7,9 C 8,9 C 7,2 C 81 % 1002,5 hPa 0,0 l/m 0 min 0 min 154 W/m 19,3 km/h (3 Bft) 97,83 %
14.11.2019 12:26 7,9 C 8,3 C 6,7 C 81 % 1002,6 hPa 0,0 l/m 0 min 0 min 156 W/m 25,7 km/h (4 Bft) 97,87 %
14.11.2019 12:28 8,0 C 8,3 C 6,7 C 81 % 1002,5 hPa 0,0 l/m 0 min 0 min 146 W/m 25,7 km/h (4 Bft) 100,00 %
14.11.2019 12:30 8,0 C 8,3 C 6,7 C 81 % 1002,6 hPa 0,0 l/m 0 min 0 min 148 W/m 19,3 km/h (3 Bft) 100,00 %
14.11.2019 12:32 7,9 C 8,9 C 7,2 C 81 % 1002,5 hPa 0,0 l/m 2 min 0 min 194 W/m 19,3 km/h (3 Bft) 100,00 %
14.11.2019 12:34 8,0 C 8,9 C 7,2 C 81 % 1002,5 hPa 0,0 l/m 2 min 0 min 201 W/m 22,5 km/h (4 Bft) 100,00 %
14.11.2019 12:36 8,0 C 8,9 C 7,2 C 81 % 1002,5 hPa 0,0 l/m 2 min 0 min 184 W/m 19,3 km/h (3 Bft) 100,00 %
14.11.2019 12:38 7,9 C 8,3 C 7,2 C 81 % 1002,6 hPa 0,0 l/m 0 min 0 min 167 W/m 41,8 km/h (6 Bft) 100,00 %
14.11.2019 12:40 8,0 C 8,3 C 7,2 C 80 % 1002,6 hPa 0,0 l/m 0 min 0 min 149 W/m 25,7 km/h (4 Bft) 95,74 %
14.11.2019 12:42 7,9 C 8,3 C 7,2 C 80 % 1002,6 hPa 0,0 l/m 0 min 0 min 156 W/m 25,7 km/h (4 Bft) 97,87 %
14.11.2019 12:44 7,9 C 8,3 C 7,2 C 80 % 1002,5 hPa 0,0 l/m 0 min 0 min 144 W/m 25,7 km/h (4 Bft) 100,00 %
14.11.2019 12:46 7,9 C 7,8 C 7,2 C 80 % 1002,5 hPa 0,0 l/m 0 min 0 min 135 W/m 25,7 km/h (4 Bft) 100,00 %
14.11.2019 12:48 7,9 C 7,8 C 7,2 C 80 % 1002,6 hPa 0,0 l/m 0 min 0 min 126 W/m 12,9 km/h (3 Bft) 100,00 %
14.11.2019 12:50 7,9 C 7,8 C 7,2 C 80 % 1002,6 hPa 0,0 l/m 0 min 0 min 116 W/m 16,1 km/h (3 Bft) 100,00 %
14.11.2019 12:52 7,9 C 7,8 C 7,2 C 80 % 1002,6 hPa 0,0 l/m 0 min 0 min 106 W/m 29,0 km/h (5 Bft) 100,00 %
14.11.2019 12:54 7,9 C 7,8 C 7,2 C 80 % 1002,6 hPa 0,0 l/m 0 min 0 min 95 W/m 22,5 km/h (4 Bft) 100,00 %
14.11.2019 12:56 7,9 C 7,8 C 6,7 C 80 % 1002,5 hPa 0,0 l/m 0 min 0 min 89 W/m 25,7 km/h (4 Bft) 100,00 %
14.11.2019 12:58 7,9 C 7,8 C 6,7 C 80 % 1002,6 hPa 0,0 l/m 0 min 0 min 89 W/m 25,7 km/h (4 Bft) 100,00 %
14.11.2019 13:00 7,9 C 7,8 C 6,7 C 80 % 1002,4 hPa 0,0 l/m 0 min 0 min 89 W/m 25,7 km/h (4 Bft) 100,00 %
14.11.2019 13:02 7,9 C 7,8 C 6,7 C 80 % 1002,4 hPa 0,0 l/m 0 min 0 min 87 W/m 22,5 km/h (4 Bft) 100,00 %
14.11.2019 13:04 7,9 C 7,8 C 6,7 C 80 % 1002,4 hPa 0,0 l/m 0 min 0 min 83 W/m 25,7 km/h (4 Bft) 97,87 %
14.11.2019 13:06 7,9 C 7,8 C 6,7 C 80 % 1002,4 hPa 0,0 l/m 0 min 0 min 81 W/m 16,1 km/h (3 Bft) 100,00 %
14.11.2019 13:08 7,9 C 7,2 C 6,7 C 80 % 1002,4 hPa 0,0 l/m 0 min 0 min 81 W/m 19,3 km/h (3 Bft) 100,00 %
14.11.2019 13:10 7,9 C 7,2 C 6,7 C 80 % 1002,4 hPa 0,0 l/m 0 min 0 min 78 W/m 22,5 km/h (4 Bft) 97,87 %
14.11.2019 13:12 7,9 C 7,2 C 6,7 C 80 % 1002,4 hPa 0,0 l/m 0 min 0 min 72 W/m 25,7 km/h (4 Bft) 100,00 %
14.11.2019 13:14 7,9 C 7,2 C 6,7 C 80 % 1002,4 hPa 0,0 l/m 0 min 0 min 66 W/m 35,4 km/h (5 Bft) 100,00 %
14.11.2019 13:16 7,8 C 7,2 C 6,7 C 80 % 1002,4 hPa 0,0 l/m 0 min 0 min 58 W/m 22,5 km/h (4 Bft) 100,00 %
14.11.2019 13:18 7,8 C 7,2 C 6,7 C 80 % 1002,4 hPa 0,0 l/m 0 min 0 min 52 W/m 22,5 km/h (4 Bft) 95,74 %
14.11.2019 13:20 7,8 C 7,2 C 6,7 C 80 % 1002,4 hPa 0,0 l/m 0 min 0 min 48 W/m 19,3 km/h (3 Bft) 95,74 %
14.11.2019 13:22 7,8 C 7,2 C 6,7 C 80 % 1002,4 hPa 0,0 l/m 0 min 0 min 48 W/m 35,4 km/h (5 Bft) 97,83 %
14.11.2019 13:24 7,8 C 7,2 C 6,7 C 80 % 1002,3 hPa 0,0 l/m 0 min 0 min 51 W/m 19,3 km/h (3 Bft) 97,87 %
14.11.2019 13:26 7,8 C 7,2 C 6,7 C 80 % 1002,3 hPa 0,0 l/m 0 min 0 min 54 W/m 16,1 km/h (3 Bft) 95,74 %
14.11.2019 13:28 7,8 C 7,2 C 6,7 C 80 % 1002,4 hPa 0,0 l/m 0 min 0 min 59 W/m 16,1 km/h (3 Bft) 95,74 %
14.11.2019 13:30 7,8 C 7,2 C 6,7 C 80 % 1002,4 hPa 0,0 l/m 0 min 0 min 65 W/m 25,7 km/h (4 Bft) 95,74 %
14.11.2019 13:32 7,8 C 7,2 C 6,7 C 80 % 1002,5 hPa 0,0 l/m 0 min 0 min 66 W/m 22,5 km/h (4 Bft) 95,74 %
14.11.2019 13:34 7,8 C 7,2 C 6,7 C 80 % 1002,4 hPa 0,0 l/m 0 min 0 min 62 W/m 32,2 km/h (5 Bft) 95,65 %
14.11.2019 13:36 7,7 C 7,2 C 6,7 C 80 % 1002,5 hPa 0,0 l/m 0 min 0 min 58 W/m 22,5 km/h (4 Bft) 91,49 %
14.11.2019 13:38 7,7 C 7,2 C 6,7 C 80 % 1002,4 hPa 0,0 l/m 0 min 0 min 54 W/m 25,7 km/h (4 Bft) 95,74 %
14.11.2019 13:40 7,7 C 7,2 C 6,7 C 80 % 1002,5 hPa 0,0 l/m 0 min 0 min 51 W/m 22,5 km/h (4 Bft) 97,87 %
14.11.2019 13:42 7,7 C 7,2 C 6,7 C 80 % 1002,5 hPa 0,0 l/m 0 min 0 min 47 W/m 12,9 km/h (3 Bft) 97,87 %
14.11.2019 13:44 7,7 C 7,2 C 6,7 C 80 % 1002,4 hPa 0,0 l/m 0 min 0 min 46 W/m 19,3 km/h (3 Bft) 95,74 %
14.11.2019 13:46 7,7 C 7,2 C 6,7 C 80 % 1002,3 hPa 0,0 l/m 0 min 0 min 49 W/m 22,5 km/h (4 Bft) 95,65 %
14.11.2019 13:48 7,7 C 7,2 C 6,7 C 80 % 1002,3 hPa 0,0 l/m 0 min 0 min 53 W/m 16,1 km/h (3 Bft) 95,74 %
14.11.2019 13:50 7,7 C 7,2 C 6,7 C 80 % 1002,4 hPa 0,0 l/m 0 min 0 min 57 W/m 19,3 km/h (3 Bft) 93,62 %
14.11.2019 13:52 7,7 C 7,2 C 6,7 C 80 % 1002,4 hPa 0,0 l/m 0 min 0 min 63 W/m 22,5 km/h (4 Bft) 95,74 %
14.11.2019 13:54 7,7 C 7,2 C 6,7 C 80 % 1002,4 hPa 0,0 l/m 0 min 0 min 72 W/m 25,7 km/h (4 Bft) 95,74 %
14.11.2019 13:56 7,7 C 7,2 C 6,7 C 79 % 1002,4 hPa 0,0 l/m 0 min 0 min 77 W/m 19,3 km/h (3 Bft) 95,74 %
14.11.2019 13:58 7,7 C 7,8 C 6,7 C 80 % 1002,3 hPa 0,0 l/m 0 min 0 min 83 W/m 22,5 km/h (4 Bft) 93,48 %
14.11.2019 14:00 7,7 C 7,8 C 6,7 C 80 % 1002,3 hPa 0,0 l/m 0 min 0 min 89 W/m 19,3 km/h (3 Bft) 95,74 %
14.11.2019 14:02 7,7 C 7,8 C 6,7 C 80 % 1002,2 hPa 0,0 l/m 0 min 0 min 92 W/m 19,3 km/h (3 Bft) 91,49 %
14.11.2019 14:04 7,8 C 7,8 C 7,2 C 79 % 1002,2 hPa 0,0 l/m 0 min 0 min 98 W/m 16,1 km/h (3 Bft) 97,87 %
14.11.2019 14:06 7,8 C 7,8 C 7,2 C 79 % 1002,2 hPa 0,0 l/m 0 min 0 min 104 W/m 25,7 km/h (4 Bft) 97,87 %
14.11.2019 14:08 7,8 C 7,8 C 7,2 C 79 % 1002,3 hPa 0,0 l/m 0 min 0 min 109 W/m 25,7 km/h (4 Bft) 97,87 %
14.11.2019 14:10 7,8 C 7,8 C 7,2 C 79 % 1002,4 hPa 0,0 l/m 0 min 0 min 111 W/m 16,1 km/h (3 Bft) 97,83 %
14.11.2019 14:12 7,8 C 8,3 C 7,2 C 79 % 1002,3 hPa 0,0 l/m 0 min 0 min 118 W/m 12,9 km/h (3 Bft) 95,74 %
14.11.2019 14:14 7,8 C 8,3 C 7,2 C 79 % 1002,3 hPa 0,0 l/m 0 min 0 min 120 W/m 16,1 km/h (3 Bft) 97,87 %
14.11.2019 14:16 7,9 C 8,3 C 7,2 C 79 % 1002,3 hPa 0,0 l/m 0 min 0 min 115 W/m 25,7 km/h (4 Bft) 95,74 %
14.11.2019 14:18 7,9 C 8,3 C 7,2 C 79 % 1002,3 hPa 0,0 l/m 0 min 0 min 111 W/m 22,5 km/h (4 Bft) 95,74 %
14.11.2019 14:20 7,9 C 8,3 C 7,2 C 79 % 1002,2 hPa 0,0 l/m 0 min 0 min 108 W/m 19,3 km/h (3 Bft) 97,83 %
14.11.2019 14:22 8,0 C 8,3 C 7,2 C 79 % 1002,2 hPa 0,0 l/m 0 min 0 min 100 W/m 16,1 km/h (3 Bft) 97,87 %
14.11.2019 14:24 8,0 C 8,3 C 7,2 C 79 % 1002,2 hPa 0,0 l/m 0 min 0 min 94 W/m 19,3 km/h (3 Bft) 97,87 %
14.11.2019 14:26 8,1 C 8,3 C 7,2 C 79 % 1002,1 hPa 0,0 l/m 0 min 0 min 91 W/m 22,5 km/h (4 Bft) 97,87 %
14.11.2019 14:28 8,1 C 8,3 C 7,2 C 79 % 1002,1 hPa 0,0 l/m 0 min 0 min 99 W/m 19,3 km/h (3 Bft) 97,87 %
14.11.2019 14:30 8,1 C 8,3 C 7,2 C 79 % 1002,0 hPa 0,0 l/m 2 min 0 min 131 W/m 12,9 km/h (3 Bft) 97,87 %
14.11.2019 14:32 8,1 C 8,9 C 7,2 C 79 % 1002,0 hPa 0,0 l/m 2 min 0 min 158 W/m 12,9 km/h (3 Bft) 97,83 %
14.11.2019 14:34 8,2 C 9,4 C 7,2 C 79 % 1001,8 hPa 0,0 l/m 2 min 0 min 213 W/m 16,1 km/h (3 Bft) 97,87 %
14.11.2019 14:36 8,2 C 10,0 C 7,2 C 79 % 1001,7 hPa 0,0 l/m 2 min 0 min 245 W/m 12,9 km/h (3 Bft) 97,87 %
14.11.2019 14:38 8,3 C 10,0 C 7,2 C 79 % 1001,7 hPa 0,0 l/m 2 min 0 min 220 W/m 25,7 km/h (4 Bft) 97,87 %
14.11.2019 14:40 8,3 C 9,4 C 7,2 C 78 % 1001,6 hPa 0,0 l/m 2 min 0 min 174 W/m 32,2 km/h (5 Bft) 97,87 %
14.11.2019 14:42 8,3 C 8,9 C 7,2 C 78 % 1001,7 hPa 0,0 l/m 2 min 0 min 142 W/m 25,7 km/h (4 Bft) 97,87 %
14.11.2019 14:44 8,3 C 8,9 C 7,2 C 77 % 1001,7 hPa 0,0 l/m 0 min 0 min 115 W/m 29,0 km/h (5 Bft) 97,83 %
14.11.2019 14:46 8,4 C 8,3 C 7,2 C 77 % 1001,6 hPa 0,0 l/m 0 min 0 min 96 W/m 22,5 km/h (4 Bft) 97,87 %
14.11.2019 14:48 8,4 C 8,3 C 7,2 C 77 % 1001,6 hPa 0,0 l/m 0 min 0 min 86 W/m 22,5 km/h (4 Bft) 97,87 %
14.11.2019 14:50 8,4 C 8,3 C 7,2 C 76 % 1001,6 hPa 0,0 l/m 0 min 0 min 79 W/m 29,0 km/h (5 Bft) 97,87 %
14.11.2019 14:52 8,4 C 8,3 C 7,2 C 76 % 1001,6 hPa 0,0 l/m 0 min 0 min 76 W/m 16,1 km/h (3 Bft) 97,87 %
14.11.2019 14:54 8,4 C 7,8 C 7,2 C 76 % 1001,5 hPa 0,0 l/m 0 min 0 min 73 W/m 22,5 km/h (4 Bft) 97,87 %
14.11.2019 14:56 8,4 C 7,8 C 7,2 C 76 % 1001,5 hPa 0,0 l/m 0 min 0 min 70 W/m 19,3 km/h (3 Bft) 97,87 %
14.11.2019 14:58 8,4 C 7,8 C 7,2 C 76 % 1001,6 hPa 0,0 l/m 0 min 0 min 68 W/m 25,7 km/h (4 Bft) 97,83 %
14.11.2019 15:00 8,4 C 7,8 C 7,2 C 76 % 1001,7 hPa 0,0 l/m 0 min 0 min 67 W/m 12,9 km/h (3 Bft) 97,87 %
14.11.2019 15:02 8,3 C 7,8 C 7,2 C 77 % 1001,8 hPa 0,0 l/m 0 min 0 min 67 W/m 25,7 km/h (4 Bft) 97,87 %
14.11.2019 15:04 8,3 C 7,8 C 7,2 C 77 % 1001,7 hPa 0,0 l/m 0 min 0 min 68 W/m 25,7 km/h (4 Bft) 97,87 %
14.11.2019 15:06 8,3 C 7,8 C 7,2 C 77 % 1001,7 hPa 0,0 l/m 0 min 0 min 69 W/m 12,9 km/h (3 Bft) 100,00 %
14.11.2019 15:08 8,3 C 7,8 C 7,2 C 77 % 1001,7 hPa 0,0 l/m 0 min 0 min 66 W/m 19,3 km/h (3 Bft) 100,00 %
14.11.2019 15:10 8,3 C 7,8 C 7,2 C 77 % 1001,7 hPa 0,0 l/m 0 min 0 min 63 W/m 16,1 km/h (3 Bft) 100,00 %
14.11.2019 15:12 8,3 C 7,8 C 6,7 C 77 % 1001,8 hPa 0,0 l/m 0 min 0 min 61 W/m 16,1 km/h (3 Bft) 97,87 %
14.11.2019 15:14 8,3 C 7,8 C 6,7 C 77 % 1001,8 hPa 0,0 l/m 0 min 0 min 57 W/m 19,3 km/h (3 Bft) 100,00 %
14.11.2019 15:16 8,2 C 7,8 C 6,7 C 77 % 1001,8 hPa 0,0 l/m 0 min 0 min 56 W/m 12,9 km/h (3 Bft) 97,87 %
14.11.2019 15:18 8,2 C 7,8 C 6,7 C 77 % 1001,9 hPa 0,0 l/m 0 min 0 min 55 W/m 16,1 km/h (3 Bft) 100,00 %
14.11.2019 15:20 8,2 C 7,8 C 6,7 C 78 % 1001,9 hPa 0,0 l/m 0 min 0 min 51 W/m 16,1 km/h (3 Bft) 100,00 %
14.11.2019 15:22 8,2 C 7,2 C 6,7 C 78 % 1001,9 hPa 0,0 l/m 0 min 0 min 47 W/m 12,9 km/h (3 Bft) 95,74 %
14.11.2019 15:24 8,2 C 7,2 C 6,7 C 78 % 1002,0 hPa 0,0 l/m 0 min 0 min 46 W/m 16,1 km/h (3 Bft) 100,00 %
14.11.2019 15:26 8,2 C 7,2 C 6,7 C 78 % 1002,0 hPa 0,0 l/m 0 min 0 min 42 W/m 19,3 km/h (3 Bft) 100,00 %
14.11.2019 15:28 8,1 C 7,2 C 6,7 C 77 % 1001,9 hPa 0,0 l/m 0 min 0 min 40 W/m 12,9 km/h (3 Bft) 100,00 %
14.11.2019 15:30 8,1 C 7,2 C 6,7 C 77 % 1002,0 hPa 0,0 l/m 0 min 0 min 38 W/m 12,9 km/h (3 Bft) 100,00 %
14.11.2019 15:32 8,1 C 7,2 C 6,7 C 77 % 1002,2 hPa 0,0 l/m 0 min 0 min 37 W/m 16,1 km/h (3 Bft) 100,00 %
14.11.2019 15:34 8,1 C 7,2 C 6,7 C 77 % 1002,2 hPa 0,0 l/m 0 min 0 min 37 W/m 19,3 km/h (3 Bft) 100,00 %
14.11.2019 15:36 8,1 C 7,2 C 6,7 C 77 % 1002,2 hPa 0,0 l/m 0 min 0 min 35 W/m 12,9 km/h (3 Bft) 100,00 %
14.11.2019 15:38 8,1 C 7,2 C 6,7 C 77 % 1002,3 hPa 0,0 l/m 0 min 0 min 34 W/m 16,1 km/h (3 Bft) 100,00 %
14.11.2019 15:40 8,1 C 7,2 C 6,7 C 77 % 1002,2 hPa 0,0 l/m 0 min 0 min 33 W/m 16,1 km/h (3 Bft) 100,00 %
14.11.2019 15:42 8,1 C 7,2 C 6,7 C 77 % 1002,3 hPa 0,0 l/m 0 min 0 min 33 W/m 16,1 km/h (3 Bft) 100,00 %
14.11.2019 15:44 8,1 C 7,2 C 6,7 C 77 % 1002,3 hPa 0,0 l/m 0 min 0 min 32 W/m 12,9 km/h (3 Bft) 100,00 %
14.11.2019 15:46 8,1 C 7,2 C 6,7 C 77 % 1002,2 hPa 0,0 l/m 0 min 0 min 32 W/m 6,4 km/h (2 Bft) 100,00 %
14.11.2019 15:48 8,0 C 7,2 C 6,7 C 77 % 1002,3 hPa 0,0 l/m 0 min 0 min 32 W/m 12,9 km/h (3 Bft) 100,00 %
14.11.2019 15:50 8,0 C 7,2 C 6,7 C 77 % 1002,4 hPa 0,0 l/m 0 min 0 min 33 W/m 12,9 km/h (3 Bft) 100,00 %
14.11.2019 15:52 8,0 C 7,2 C 6,7 C 77 % 1002,5 hPa 0,0 l/m 0 min 0 min 35 W/m 6,4 km/h (2 Bft) 97,87 %
14.11.2019 15:54 8,0 C 7,2 C 6,7 C 77 % 1002,6 hPa 0,0 l/m 0 min 0 min 35 W/m 6,4 km/h (2 Bft) 97,83 %
14.11.2019 15:56 8,0 C 7,2 C 6,7 C 78 % 1002,7 hPa 0,0 l/m 0 min 0 min 33 W/m 3,2 km/h (1 Bft) 95,74 %
14.11.2019 15:58 8,0 C 7,2 C 6,7 C 78 % 1002,8 hPa 0,0 l/m 0 min 0 min 32 W/m 6,4 km/h (2 Bft) 97,87 %
14.11.2019 16:00 8,0 C 7,2 C 6,7 C 78 % 1002,7 hPa 0,0 l/m 0 min 0 min 32 W/m 6,4 km/h (2 Bft) 97,87 %
14.11.2019 16:02 8,0 C 7,2 C 6,7 C 78 % 1002,8 hPa 0,0 l/m 0 min 0 min 33 W/m 6,4 km/h (2 Bft) 97,87 %
14.11.2019 16:04 8,0 C 7,2 C 6,7 C 78 % 1002,9 hPa 0,0 l/m 0 min 0 min 33 W/m 3,2 km/h (1 Bft) 97,87 %
14.11.2019 16:06 8,0 C 7,2 C 6,7 C 78 % 1003,0 hPa 0,0 l/m 0 min 0 min 30 W/m 3,2 km/h (1 Bft) 97,83 %
14.11.2019 16:08 8,0 C 7,2 C 6,1 C 78 % 1003,1 hPa 0,0 l/m 0 min 0 min 24 W/m 6,4 km/h (2 Bft) 95,74 %
14.11.2019 16:10 7,9 C 7,2 C 6,1 C 78 % 1003,2 hPa 0,0 l/m 0 min 0 min 18 W/m 6,4 km/h (2 Bft) 97,87 %
14.11.2019 16:12 7,9 C 7,2 C 6,1 C 78 % 1003,3 hPa 0,0 l/m 0 min 0 min 15 W/m 6,4 km/h (2 Bft) 93,62 %
14.11.2019 16:14 7,9 C 7,2 C 6,1 C 78 % 1003,3 hPa 0,0 l/m 0 min 0 min 12 W/m 6,4 km/h (2 Bft) 93,62 %
14.11.2019 16:16 7,9 C 7,2 C 6,1 C 78 % 1003,3 hPa 0,0 l/m 0 min 0 min 11 W/m 3,2 km/h (1 Bft) 95,65 %
14.11.2019 16:18 7,9 C 7,2 C 6,1 C 79 % 1003,2 hPa 0,0 l/m 0 min 0 min 12 W/m 3,2 km/h (1 Bft) 97,87 %
14.11.2019 16:20 7,9 C 7,2 C 6,1 C 79 % 1003,2 hPa 0,0 l/m 0 min 0 min 12 W/m 3,2 km/h (1 Bft) 97,87 %
14.11.2019 16:22 7,9 C 7,2 C 6,1 C 79 % 1003,1 hPa 0,0 l/m 0 min 0 min 12 W/m 0,0 km/h (0 Bft) 93,62 %
14.11.2019 16:24 7,9 C 6,7 C 6,1 C 79 % 1003,0 hPa 0,0 l/m 0 min 0 min 11 W/m 0,0 km/h (0 Bft) 95,74 %
14.11.2019 16:26 7,9 C 6,7 C 5,6 C 79 % 1003,0 hPa 0,0 l/m 0 min 0 min 11 W/m 0,0 km/h (0 Bft) 95,74 %
14.11.2019 16:28 7,9 C 6,7 C 5,6 C 79 % 1003,0 hPa 0,0 l/m 0 min 0 min 9 W/m 0,0 km/h (0 Bft) 93,48 %
14.11.2019 16:30 7,9 C 6,1 C 5,6 C 79 % 1003,1 hPa 0,0 l/m 0 min 0 min 8 W/m 0,0 km/h (0 Bft) 93,62 %
14.11.2019 16:32 7,9 C 6,1 C 5,6 C 79 % 1003,1 hPa 0,0 l/m 0 min 0 min 6 W/m 0,0 km/h (0 Bft) 93,62 %
14.11.2019 16:34 7,8 C 6,1 C 5,6 C 80 % 1003,1 hPa 0,0 l/m 0 min 0 min 5 W/m 0,0 km/h (0 Bft) 95,74 %
14.11.2019 16:36 7,8 C 6,1 C 5,0 C 80 % 1003,1 hPa 0,0 l/m 0 min 0 min 5 W/m 0,0 km/h (0 Bft) 93,62 %
14.11.2019 16:38 7,8 C 6,1 C 5,0 C 80 % 1003,1 hPa 0,0 l/m 0 min 0 min 1 W/m 0,0 km/h (0 Bft) 95,74 %
14.11.2019 16:40 7,8 C 5,6 C 5,0 C 80 % 1003,0 hPa 0,0 l/m 0 min 0 min 0 W/m 0,0 km/h (0 Bft) 97,83 %
14.11.2019 16:42 7,8 C 5,6 C 5,0 C 80 % 1003,0 hPa 0,0 l/m 0 min 0 min 0 W/m 0,0 km/h (0 Bft) 97,87 %
14.11.2019 16:44 7,7 C 5,6 C 5,0 C 81 % 1003,1 hPa 0,0 l/m 0 min 0 min 0 W/m 0,0 km/h (0 Bft) 95,74 %
14.11.2019 16:46 7,7 C 5,6 C 5,0 C 81 % 1003,1 hPa 0,0 l/m 0 min 0 min 0 W/m 0,0 km/h (0 Bft) 95,74 %
14.11.2019 16:48 7,7 C 5,6 C 5,0 C 81 % 1003,1 hPa 0,0 l/m 0 min 0 min 0 W/m 0,0 km/h (0 Bft) 97,87 %
14.11.2019 16:50 7,6 C 5,6 C 5,0 C 81 % 1003,1 hPa 0,0 l/m 0 min 0 min 0 W/m 0,0 km/h (0 Bft) 91,49 %
14.11.2019 16:52 7,6 C 5,6 C 5,0 C 81 % 1003,1 hPa 0,0 l/m 0 min 0 min 0 W/m 0,0 km/h (0 Bft) 95,65 %
14.11.2019 16:54 7,6 C 5,6 C 5,0 C 81 % 1003,1 hPa 0,0 l/m 0 min 0 min 0 W/m 0,0 km/h (0 Bft) 95,74 %
14.11.2019 16:56 7,6 C 5,6 C 5,0 C 81 % 1003,1 hPa 0,0 l/m 0 min 0 min 0 W/m 0,0 km/h (0 Bft) 97,87 %
14.11.2019 16:58 7,5 C 5,6 C 5,0 C 81 % 1003,1 hPa 0,0 l/m 0 min 0 min 0 W/m 0,0 km/h (0 Bft) 97,87 %
14.11.2019 17:00 7,4 C 5,6 C 5,0 C 82 % 1003,1 hPa 0,0 l/m 0 min 0 min 0 W/m 0,0 km/h (0 Bft) 97,87 %
14.11.2019 17:02 7,4 C 5,6 C 4,4 C 82 % 1003,1 hPa 0,0 l/m 0 min 0 min 0 W/m 0,0 km/h (0 Bft) 95,74 %
14.11.2019 17:04 7,4 C 5,6 C 5,0 C 82 % 1003,1 hPa 0,0 l/m 0 min 0 min 0 W/m 0,0 km/h (0 Bft) 97,83 %
14.11.2019 17:06 7,3 C 5,6 C 5,0 C 82 % 1003,1 hPa 0,0 l/m 0 min 0 min 0 W/m 0,0 km/h (0 Bft) 97,87 %
14.11.2019 17:08 7,3 C 5,6 C 5,0 C 82 % 1003,1 hPa 0,0 l/m 0 min 0 min 0 W/m 0,0 km/h (0 Bft) 100,00 %
14.11.2019 17:10 7,3 C 5,6 C 5,0 C 82 % 1003,0 hPa 0,0 l/m 0 min 0 min 0 W/m 0,0 km/h (0 Bft) 100,00 %
14.11.2019 17:12 7,2 C 5,6 C 5,0 C 82 % 1003,0 hPa 0,0 l/m 0 min 0 min 0 W/m 0,0 km/h (0 Bft) 100,00 %
14.11.2019 17:14 7,2 C 5,6 C 5,0 C 82 % 1003,0 hPa 0,0 l/m 0 min 0 min 0 W/m 0,0 km/h (0 Bft) 100,00 %
14.11.2019 17:16 7,2 C 5,6 C 5,0 C 82 % 1003,0 hPa 0,0 l/m 0 min 0 min 0 W/m 0,0 km/h (0 Bft) 100,00 %
14.11.2019 17:18 7,1 C 5,6 C 5,0 C 82 % 1003,1 hPa 0,0 l/m 0 min 0 min 0 W/m 0,0 km/h (0 Bft) 100,00 %
14.11.2019 17:20 7,1 C 5,6 C 5,0 C 82 % 1003,1 hPa 0,0 l/m 0 min 0 min 0 W/m 0,0 km/h (0 Bft) 100,00 %
14.11.2019 17:22 7,1 C 5,6 C 5,0 C 82 % 1003,0 hPa 0,0 l/m 0 min 0 min 0 W/m 0,0 km/h (0 Bft) 100,00 %
14.11.2019 17:24 7,1 C 5,6 C 5,0 C 83 % 1003,0 hPa 0,0 l/m 0 min 0 min 0 W/m 0,0 km/h (0 Bft) 100,00 %
14.11.2019 17:26 7,0 C 5,6 C 4,4 C 83 % 1003,0 hPa 0,0 l/m 0 min 0 min 0 W/m 0,0 km/h (0 Bft) 100,00 %
14.11.2019 17:28 7,0 C 5,6 C 4,4 C 83 % 1003,0 hPa 0,0 l/m 0 min 0 min 0 W/m 0,0 km/h (0 Bft) 100,00 %
14.11.2019 17:30 6,9 C 5,6 C 4,4 C 83 % 1003,0 hPa 0,0 l/m 0 min 0 min 0 W/m 0,0 km/h (0 Bft) 97,87 %
14.11.2019 17:32 6,9 C 5,6 C 4,4 C 83 % 1003,0 hPa 0,0 l/m 0 min 0 min 0 W/m 0,0 km/h (0 Bft) 100,00 %
14.11.2019 17:34 6,9 C 5,6 C 4,4 C 83 % 1003,1 hPa 0,0 l/m 0 min 0 min 0 W/m 0,0 km/h (0 Bft) 100,00 %
14.11.2019 17:36 6,8 C 5,6 C 4,4 C 83 % 1003,1 hPa 0,0 l/m 0 min 0 min 0 W/m 0,0 km/h (0 Bft) 100,00 %
14.11.2019 17:38 6,8 C 5,6 C 4,4 C 83 % 1003,1 hPa 0,0 l/m 0 min 0 min 0 W/m 0,0 km/h (0 Bft) 96,00 %
14.11.2019 17:40 6,8 C 5,6 C 4,4 C 83 % 1003,2 hPa 0,0 l/m 0 min 0 min 0 W/m 0,0 km/h (0 Bft) 100,00 %
14.11.2019 17:42 6,8 C 5,6 C 4,4 C 83 % 1003,2 hPa 0,0 l/m 0 min 0 min 0 W/m 3,2 km/h (1 Bft) 97,87 %
14.11.2019 17:44 6,8 C 5,6 C 4,4 C 84 % 1003,2 hPa 0,0 l/m 0 min 0 min 0 W/m 3,2 km/h (1 Bft) 95,74 %
14.11.2019 17:46 6,7 C 5,6 C 4,4 C 84 % 1003,2 hPa 0,0 l/m 0 min 0 min 0 W/m 3,2 km/h (1 Bft) 98,15 %
14.11.2019 17:48 6,7 C 5,6 C 4,4 C 84 % 1003,2 hPa 0,0 l/m 0 min 0 min 0 W/m 3,2 km/h (1 Bft) 97,83 %
14.11.2019 17:50 6,7 C 5,6 C 4,4 C 84 % 1003,3 hPa 0,0 l/m 0 min 0 min 0 W/m 3,2 km/h (1 Bft) 98,00 %
14.11.2019 17:52 6,7 C 5,6 C 4,4 C 84 % 1003,4 hPa 0,0 l/m 0 min 0 min 0 W/m 0,0 km/h (0 Bft) 95,74 %
14.11.2019 17:54 6,6 C 5,0 C 4,4 C 84 % 1003,3 hPa 0,0 l/m 0 min 0 min 0 W/m 0,0 km/h (0 Bft) 97,30 %
14.11.2019 17:56 6,6 C 5,0 C 4,4 C 84 % 1003,3 hPa 0,0 l/m 0 min 0 min 0 W/m 0,0 km/h (0 Bft) 97,87 %
14.11.2019 17:58 6,6 C 5,0 C 4,4 C 84 % 1003,3 hPa 0,0 l/m 0 min 0 min 0 W/m 0,0 km/h (0 Bft) 93,62 %
14.11.2019 18:00 6,6 C 5,0 C 4,4 C 84 % 1003,3 hPa 0,0 l/m 0 min 0 min 0 W/m 0,0 km/h (0 Bft) 97,87 %
14.11.2019 18:02 6,5 C 5,0 C 4,4 C 84 % 1003,2 hPa 0,0 l/m 0 min 0 min 0 W/m 3,2 km/h (1 Bft) 97,83 %
14.11.2019 18:04 6,5 C 5,0 C 4,4 C 84 % 1003,2 hPa 0,0 l/m 0 min 0 min 0 W/m 3,2 km/h (1 Bft) 95,74 %
14.11.2019 18:08 6,5 C 5,0 C 4,4 C 84 % 1003,3 hPa 0,0 l/m 0 min 0 min 0 W/m 0,0 km/h (0 Bft) 97,87 %
14.11.2019 18:10 6,4 C 5,0 C 3,9 C 84 % 1003,3 hPa 0,0 l/m 0 min 0 min 0 W/m 0,0 km/h (0 Bft) 97,87 %
14.11.2019 18:12 6,4 C 5,0 C 3,9 C 84 % 1003,3 hPa 0,0 l/m 0 min 0 min 0 W/m 0,0 km/h (0 Bft) 97,83 %
14.11.2019 18:14 6,4 C 5,0 C 3,9 C 84 % 1003,3 hPa 0,0 l/m 0 min 0 min 0 W/m 0,0 km/h (0 Bft) 97,87 %
14.11.2019 18:16 6,3 C 5,0 C 3,9 C 84 % 1003,3 hPa 0,0 l/m 0 min 0 min 0 W/m 3,2 km/h (1 Bft) 97,87 %
14.11.2019 18:18 6,3 C 5,0 C 3,9 C 84 % 1003,4 hPa 0,0 l/m 0 min 0 min 0 W/m 0,0 km/h (0 Bft) 53,49 %
14.11.2019 18:20 6,3 C 4,4 C 3,9 C 84 % 1003,3 hPa 0,0 l/m 0 min 0 min 0 W/m 0,0 km/h (0 Bft) 97,87 %
14.11.2019 18:22 6,3 C 4,4 C 3,9 C 84 % 1003,3 hPa 0,0 l/m 0 min 0 min 0 W/m 0,0 km/h (0 Bft) 97,87 %
14.11.2019 18:24 6,2 C 4,4 C 3,9 C 85 % 1003,2 hPa 0,0 l/m 0 min 0 min 0 W/m 0,0 km/h (0 Bft) 97,83 %
14.11.2019 18:26 6,2 C 4,4 C 3,9 C 85 % 1003,2 hPa 0,0 l/m 0 min 0 min 0 W/m 0,0 km/h (0 Bft) 97,87 %
14.11.2019 18:28 6,2 C 4,4 C 3,9 C 85 % 1003,3 hPa 0,0 l/m 0 min 0 min 0 W/m 0,0 km/h (0 Bft) 97,87 %
14.11.2019 18:30 6,2 C 4,4 C 3,9 C 85 % 1003,3 hPa 0,0 l/m 0 min 0 min 0 W/m 0,0 km/h (0 Bft) 97,87 %
14.11.2019 18:32 6,1 C 4,4 C 3,9 C 85 % 1003,3 hPa 0,0 l/m 0 min 0 min 0 W/m 0,0 km/h (0 Bft) 97,87 %
14.11.2019 18:34 6,1 C 4,4 C 3,9 C 85 % 1003,3 hPa 0,0 l/m 0 min 0 min 0 W/m 3,2 km/h (1 Bft) 95,74 %
14.11.2019 18:36 6,1 C 4,4 C 3,9 C 85 % 1003,4 hPa 0,0 l/m 0 min 0 min 0 W/m 0,0 km/h (0 Bft) 93,48 %
14.11.2019 18:38 6,1 C 4,4 C 3,9 C 85 % 1003,3 hPa 0,0 l/m 0 min 0 min 0 W/m 3,2 km/h (1 Bft) 98,15 %
14.11.2019 18:40 6,0 C 4,4 C 3,9 C 85 % 1003,4 hPa 0,0 l/m 0 min 0 min 0 W/m 3,2 km/h (1 Bft) 95,74 %
14.11.2019 18:42 6,0 C 4,4 C 3,9 C 85 % 1003,4 hPa 0,0 l/m 0 min 0 min 0 W/m 3,2 km/h (1 Bft) 97,87 %
14.11.2019 18:44 5,9 C 5,0 C 3,9 C 85 % 1003,5 hPa 0,0 l/m 0 min 0 min 0 W/m 0,0 km/h (0 Bft) 97,56 %
14.11.2019 18:46 5,9 C 5,0 C 3,9 C 86 % 1003,5 hPa 0,0 l/m 0 min 0 min 0 W/m 0,0 km/h (0 Bft) 97,87 %
14.11.2019 18:48 5,9 C 5,0 C 3,9 C 85 % 1003,5 hPa 0,0 l/m 0 min 0 min 0 W/m 0,0 km/h (0 Bft) 95,83 %
14.11.2019 18:50 5,9 C 5,0 C 3,9 C 85 % 1003,5 hPa 0,0 l/m 0 min 0 min 0 W/m 0,0 km/h (0 Bft) 93,75 %
14.11.2019 18:52 5,8 C 5,0 C 3,9 C 86 % 1003,7 hPa 0,0 l/m 0 min 0 min 0 W/m 0,0 km/h (0 Bft) 95,83 %
14.11.2019 18:54 5,8 C 5,0 C 3,9 C 86 % 1003,7 hPa 0,0 l/m 0 min 0 min 0 W/m 0,0 km/h (0 Bft) 95,74 %
14.11.2019 18:56 5,8 C 4,4 C 3,9 C 86 % 1003,7 hPa 0,0 l/m 0 min 0 min 0 W/m 0,0 km/h (0 Bft) 93,75 %
14.11.2019 18:58 5,8 C 4,4 C 3,9 C 86 % 1003,8 hPa 0,0 l/m 0 min 0 min 0 W/m 0,0 km/h (0 Bft) 95,65 %
14.11.2019 19:00 5,8 C 4,4 C 3,9 C 86 % 1003,7 hPa 0,0 l/m 0 min 0 min 0 W/m 0,0 km/h (0 Bft) 95,74 %
14.11.2019 19:02 5,8 C 4,4 C 3,9 C 86 % 1003,7 hPa 0,0 l/m 0 min 0 min 0 W/m 0,0 km/h (0 Bft) 95,83 %
14.11.2019 19:04 5,8 C 4,4 C 3,9 C 86 % 1003,8 hPa 0,0 l/m 0 min 0 min 0 W/m 0,0 km/h (0 Bft) 91,49 %
14.11.2019 19:06 5,7 C 4,4 C 3,9 C 86 % 1003,8 hPa 0,0 l/m 0 min 0 min 0 W/m 0,0 km/h (0 Bft) 93,62 %
14.11.2019 19:08 5,7 C 4,4 C 3,9 C 87 % 1003,9 hPa 0,0 l/m 0 min 0 min 0 W/m 0,0 km/h (0 Bft) 95,92 %
14.11.2019 19:10 5,7 C 4,4 C 3,9 C 87 % 1003,9 hPa 0,0 l/m 0 min 0 min 0 W/m 0,0 km/h (0 Bft) 93,62 %
14.11.2019 19:12 5,7 C 4,4 C 3,9 C 86 % 1003,9 hPa 0,0 l/m 0 min 0 min 0 W/m 0,0 km/h (0 Bft) 95,74 %
14.11.2019 19:14 5,7 C 4,4 C 3,9 C 87 % 1003,8 hPa 0,0 l/m 0 min 0 min 0 W/m 0,0 km/h (0 Bft) 95,74 %
14.11.2019 19:16 5,7 C 4,4 C 3,9 C 87 % 1003,8 hPa 0,0 l/m 0 min 0 min 0 W/m 0,0 km/h (0 Bft) 95,74 %
14.11.2019 19:18 5,7 C 4,4 C 3,9 C 87 % 1003,7 hPa 0,0 l/m 0 min 0 min 0 W/m 0,0 km/h (0 Bft) 95,24 %
14.11.2019 19:20 5,6 C 4,4 C 3,9 C 87 % 1003,7 hPa 0,0 l/m 0 min 0 min 0 W/m 0,0 km/h (0 Bft) 93,75 %
14.11.2019 19:22 5,6 C 4,4 C 3,9 C 87 % 1003,8 hPa 0,0 l/m 0 min 0 min 0 W/m 0,0 km/h (0 Bft) 95,74 %
14.11.2019 19:24 5,6 C 4,4 C 3,9 C 87 % 1003,7 hPa 0,0 l/m 0 min 0 min 0 W/m 0,0 km/h (0 Bft) 95,74 %
14.11.2019 19:26 5,6 C 4,4 C 3,9 C 87 % 1003,8 hPa 0,0 l/m 0 min 0 min 0 W/m 0,0 km/h (0 Bft) 97,92 %
14.11.2019 19:28 5,6 C 4,4 C 3,9 C 87 % 1003,7 hPa 0,0 l/m 0 min 0 min 0 W/m 0,0 km/h (0 Bft) 97,92 %
14.11.2019 19:30 5,6 C 4,4 C 3,9 C 87 % 1003,8 hPa 0,0 l/m 0 min 0 min 0 W/m 0,0 km/h (0 Bft) 97,87 %
14.11.2019 19:32 5,6 C 4,4 C 3,9 C 87 % 1003,7 hPa 0,0 l/m 0 min 0 min 0 W/m 0,0 km/h (0 Bft) 97,87 %
14.11.2019 19:34 5,6 C 4,4 C 3,9 C 87 % 1003,7 hPa 0,0 l/m 0 min 0 min 0 W/m 0,0 km/h (0 Bft) 97,87 %
14.11.2019 19:36 5,5 C 4,4 C 3,9 C 87 % 1003,7 hPa 0,0 l/m 0 min 0 min 0 W/m 0,0 km/h (0 Bft) 95,74 %
14.11.2019 19:38 5,5 C 4,4 C 3,9 C 87 % 1003,6 hPa 0,0 l/m 0 min 0 min 0 W/m 0,0 km/h (0 Bft) 100,00 %
14.11.2019 19:40 5,5 C 4,4 C 3,9 C 87 % 1003,6 hPa 0,0 l/m 0 min 0 min 0 W/m 0,0 km/h (0 Bft) 100,00 %
14.11.2019 19:42 5,4 C 4,4 C 3,9 C 87 % 1003,6 hPa 0,0 l/m 0 min 0 min 0 W/m 3,2 km/h (1 Bft) 97,87 %
14.11.2019 19:44 5,4 C 4,4 C 3,9 C 87 % 1003,6 hPa 0,0 l/m 0 min 0 min 0 W/m 3,2 km/h (1 Bft) 97,87 %
14.11.2019 19:46 5,4 C 4,4 C 3,9 C 87 % 1003,7 hPa 0,0 l/m 0 min 0 min 0 W/m 0,0 km/h (0 Bft) 100,00 %
14.11.2019 19:48 5,4 C 4,4 C 3,9 C 87 % 1003,7 hPa 0,0 l/m 0 min 0 min 0 W/m 3,2 km/h (1 Bft) 100,00 %
14.11.2019 19:50 5,4 C 4,4 C 3,9 C 88 % 1003,7 hPa 0,0 l/m 0 min 0 min 0 W/m 0,0 km/h (0 Bft) 100,00 %
14.11.2019 19:52 5,4 C 4,4 C 3,9 C 88 % 1003,7 hPa 0,0 l/m 0 min 0 min 0 W/m 0,0 km/h (0 Bft) 97,87 %
14.11.2019 19:54 5,4 C 4,4 C 3,9 C 88 % 1003,7 hPa 0,0 l/m 0 min 0 min 0 W/m 0,0 km/h (0 Bft) 100,00 %
14.11.2019 19:56 5,4 C 4,4 C 3,9 C 88 % 1003,7 hPa 0,0 l/m 0 min 0 min 0 W/m 0,0 km/h (0 Bft) 100,00 %
14.11.2019 19:58 5,3 C 4,4 C 3,9 C 88 % 1003,8 hPa 0,0 l/m 0 min 0 min 0 W/m 0,0 km/h (0 Bft) 100,00 %
14.11.2019 20:00 5,3 C 4,4 C 3,3 C 88 % 1003,7 hPa 0,0 l/m 0 min 0 min 0 W/m 0,0 km/h (0 Bft) 97,87 %
14.11.2019 20:02 5,3 C 4,4 C 3,3 C 88 % 1003,7 hPa 0,0 l/m 0 min 0 min 0 W/m 3,2 km/h (1 Bft) 100,00 %
14.11.2019 20:04 5,3 C 4,4 C 3,3 C 88 % 1003,7 hPa 0,0 l/m 0 min 0 min 0 W/m 3,2 km/h (1 Bft) 100,00 %
14.11.2019 20:06 5,3 C 4,4 C 3,3 C 88 % 1003,8 hPa 0,0 l/m 0 min 0 min 0 W/m 3,2 km/h (1 Bft) 100,00 %
14.11.2019 20:08 5,3 C 4,4 C 3,3 C 88 % 1003,8 hPa 0,0 l/m 0 min 0 min 0 W/m 3,2 km/h (1 Bft) 100,00 %
14.11.2019 20:10 5,3 C 4,4 C 3,3 C 88 % 1003,9 hPa 0,0 l/m 0 min 0 min 0 W/m 3,2 km/h (1 Bft) 100,00 %
14.11.2019 20:12 5,3 C 4,4 C 3,3 C 88 % 1003,8 hPa 0,0 l/m 0 min 0 min 0 W/m 3,2 km/h (1 Bft) 97,87 %
14.11.2019 20:14 5,3 C 4,4 C 3,3 C 88 % 1003,9 hPa 0,0 l/m 0 min 0 min 0 W/m 3,2 km/h (1 Bft) 100,00 %
14.11.2019 20:16 5,2 C 4,4 C 3,3 C 88 % 1003,9 hPa 0,0 l/m 0 min 0 min 0 W/m 3,2 km/h (1 Bft) 100,00 %
14.11.2019 20:18 5,2 C 4,4 C 3,9 C 88 % 1003,9 hPa 0,0 l/m 0 min 0 min 0 W/m 0,0 km/h (0 Bft) 100,00 %
14.11.2019 20:20 5,2 C 4,4 C 3,9 C 88 % 1003,9 hPa 0,0 l/m 0 min 0 min 0 W/m 0,0 km/h (0 Bft) 100,00 %
14.11.2019 20:22 5,2 C 4,4 C 3,9 C 88 % 1004,0 hPa 0,0 l/m 0 min 0 min 0 W/m 0,0 km/h (0 Bft) 100,00 %
14.11.2019 20:24 5,2 C 4,4 C 3,9 C 88 % 1004,0 hPa 0,0 l/m 0 min 0 min 0 W/m 0,0 km/h (0 Bft) 100,00 %
14.11.2019 20:26 5,2 C 4,4 C 3,9 C 88 % 1004,0 hPa 0,0 l/m 0 min 0 min 0 W/m 0,0 km/h (0 Bft) 100,00 %
14.11.2019 20:28 5,2 C 4,4 C 3,3 C 88 % 1003,9 hPa 0,0 l/m 0 min 0 min 0 W/m 0,0 km/h (0 Bft) 100,00 %
14.11.2019 20:30 5,2 C 4,4 C 3,3 C 88 % 1003,9 hPa 0,0 l/m 0 min 0 min 0 W/m 0,0 km/h (0 Bft) 100,00 %
14.11.2019 20:32 5,2 C 3,9 C 3,3 C 88 % 1003,8 hPa 0,0 l/m 0 min 0 min 0 W/m 0,0 km/h (0 Bft) 100,00 %
14.11.2019 20:34 5,1 C 3,9 C 3,3 C 88 % 1003,8 hPa 0,0 l/m 0 min 0 min 0 W/m 0,0 km/h (0 Bft) 100,00 %
14.11.2019 20:36 5,1 C 3,9 C 3,3 C 88 % 1003,8 hPa 0,0 l/m 0 min 0 min 0 W/m 0,0 km/h (0 Bft) 97,87 %
14.11.2019 20:38 5,1 C 3,9 C 3,3 C 88 % 1003,8 hPa 0,0 l/m 0 min 0 min 0 W/m 0,0 km/h (0 Bft) 100,00 %
14.11.2019 20:40 5,1 C 3,9 C 3,3 C 88 % 1003,8 hPa 0,0 l/m 0 min 0 min 0 W/m 3,2 km/h (1 Bft) 100,00 %
14.11.2019 20:42 5,1 C 3,9 C 3,3 C 88 % 1003,9 hPa 0,0 l/m 0 min 0 min 0 W/m 3,2 km/h (1 Bft) 95,74 %
14.11.2019 20:44 5,1 C 3,9 C 3,3 C 88 % 1003,8 hPa 0,0 l/m 0 min 0 min 0 W/m 3,2 km/h (1 Bft) 100,00 %
14.11.2019 20:46 5,1 C 3,9 C 3,3 C 88 % 1003,8 hPa 0,0 l/m 0 min 0 min 0 W/m 3,2 km/h (1 Bft) 100,00 %
14.11.2019 20:48 5,1 C 3,9 C 3,3 C 88 % 1003,9 hPa 0,0 l/m 0 min 0 min 0 W/m 3,2 km/h (1 Bft) 100,00 %
14.11.2019 20:50 5,1 C 3,9 C 3,3 C 88 % 1003,9 hPa 0,0 l/m 0 min 0 min 0 W/m 3,2 km/h (1 Bft) 95,74 %
14.11.2019 20:52 5,1 C 3,9 C 3,3 C 88 % 1003,9 hPa 0,0 l/m 0 min 0 min 0 W/m 3,2 km/h (1 Bft) 97,87 %
14.11.2019 20:54 5,1 C 3,9 C 3,3 C 89 % 1004,0 hPa 0,0 l/m 0 min 0 min 0 W/m 0,0 km/h (0 Bft) 100,00 %
14.11.2019 20:56 5,0 C 3,9 C 3,3 C 89 % 1003,9 hPa 0,0 l/m 0 min 0 min 0 W/m 3,2 km/h (1 Bft) 97,83 %
14.11.2019 20:58 5,0 C 3,9 C 3,3 C 88 % 1003,9 hPa 0,0 l/m 0 min 0 min 0 W/m 0,0 km/h (0 Bft) 97,87 %
14.11.2019 21:00 5,0 C 3,9 C 3,3 C 88 % 1003,8 hPa 0,0 l/m 0 min 0 min 0 W/m 3,2 km/h (1 Bft) 97,87 %
14.11.2019 21:02 5,0 C 3,9 C 3,3 C 88 % 1003,9 hPa 0,0 l/m 0 min 0 min 0 W/m 3,2 km/h (1 Bft) 100,00 %
14.11.2019 21:04 4,9 C 3,9 C 3,3 C 88 % 1003,9 hPa 0,0 l/m 0 min 0 min 0 W/m 0,0 km/h (0 Bft) 100,00 %
14.11.2019 21:06 4,9 C 3,3 C 2,8 C 88 % 1003,8 hPa 0,0 l/m 0 min 0 min 0 W/m 3,2 km/h (1 Bft) 95,74 %
14.11.2019 21:08 4,9 C 3,3 C 2,8 C 88 % 1003,8 hPa 0,0 l/m 0 min 0 min 0 W/m 3,2 km/h (1 Bft) 97,83 %
14.11.2019 21:10 4,9 C 3,3 C 2,8 C 88 % 1003,7 hPa 0,0 l/m 0 min 0 min 0 W/m 0,0 km/h (0 Bft) 97,87 %
14.11.2019 21:12 4,9 C 3,3 C 2,8 C 89 % 1003,8 hPa 0,0 l/m 0 min 0 min 0 W/m 0,0 km/h (0 Bft) 97,87 %
14.11.2019 21:14 4,9 C 3,3 C 2,8 C 89 % 1003,7 hPa 0,0 l/m 0 min 0 min 0 W/m 0,0 km/h (0 Bft) 97,87 %
14.11.2019 21:16 4,8 C 3,3 C 2,8 C 89 % 1003,6 hPa 0,0 l/m 0 min 0 min 0 W/m 3,2 km/h (1 Bft) 95,74 %
14.11.2019 21:18 4,8 C 3,3 C 2,8 C 89 % 1003,7 hPa 0,0 l/m 0 min 0 min 0 W/m 0,0 km/h (0 Bft) 97,83 %
14.11.2019 21:20 4,8 C 3,3 C 2,8 C 89 % 1003,7 hPa 0,0 l/m 0 min 0 min 0 W/m 0,0 km/h (0 Bft) 97,87 %
14.11.2019 21:22 4,8 C 3,3 C 2,8 C 89 % 1003,7 hPa 0,0 l/m 0 min 0 min 0 W/m 3,2 km/h (1 Bft) 97,87 %
14.11.2019 21:24 4,7 C 3,3 C 2,8 C 89 % 1003,7 hPa 0,0 l/m 0 min 0 min 0 W/m 3,2 km/h (1 Bft) 95,74 %
14.11.2019 21:26 4,7 C 3,3 C 2,8 C 89 % 1003,7 hPa 0,0 l/m 0 min 0 min 0 W/m 3,2 km/h (1 Bft) 97,87 %
14.11.2019 21:28 4,7 C 3,3 C 2,8 C 89 % 1003,6 hPa 0,0 l/m 0 min 0 min 0 W/m 3,2 km/h (1 Bft) 97,87 %
14.11.2019 21:30 4,7 C 3,3 C 2,8 C 88 % 1003,6 hPa 0,0 l/m 0 min 0 min 0 W/m 3,2 km/h (1 Bft) 97,83 %
14.11.2019 21:32 4,6 C 3,3 C 2,8 C 88 % 1003,6 hPa 0,0 l/m 0 min 0 min 0 W/m 3,2 km/h (1 Bft) 97,87 %
14.11.2019 21:34 4,6 C 3,3 C 2,8 C 88 % 1003,6 hPa 0,0 l/m 0 min 0 min 0 W/m 3,2 km/h (1 Bft) 91,49 %
14.11.2019 21:36 4,6 C 2,8 C 2,2 C 89 % 1003,7 hPa 0,0 l/m 0 min 0 min 0 W/m 3,2 km/h (1 Bft) 93,62 %
14.11.2019 21:38 4,6 C 2,8 C 2,2 C 89 % 1003,6 hPa 0,0 l/m 0 min 0 min 0 W/m 0,0 km/h (0 Bft) 97,87 %
14.11.2019 21:40 4,5 C 2,8 C 2,2 C 89 % 1003,6 hPa 0,0 l/m 0 min 0 min 0 W/m 0,0 km/h (0 Bft) 95,74 %
14.11.2019 21:42 4,4 C 2,8 C 2,2 C 89 % 1003,6 hPa 0,0 l/m 0 min 0 min 0 W/m 0,0 km/h (0 Bft) 95,74 %
14.11.2019 21:44 4,4 C 2,8 C 2,2 C 89 % 1003,6 hPa 0,0 l/m 0 min 0 min 0 W/m 0,0 km/h (0 Bft) 91,30 %
14.11.2019 21:46 4,4 C 2,8 C 2,2 C 89 % 1003,6 hPa 0,0 l/m 0 min 0 min 0 W/m 0,0 km/h (0 Bft) 95,74 %
14.11.2019 21:48 4,4 C 2,8 C 1,7 C 89 % 1003,6 hPa 0,0 l/m 0 min 0 min 0 W/m 3,2 km/h (1 Bft) 95,74 %
14.11.2019 21:50 4,3 C 2,8 C 2,2 C 89 % 1003,5 hPa 0,0 l/m 0 min 0 min 0 W/m 3,2 km/h (1 Bft) 95,74 %
14.11.2019 21:52 4,3 C 2,2 C 2,2 C 89 % 1003,6 hPa 0,0 l/m 0 min 0 min 0 W/m 0,0 km/h (0 Bft) 93,62 %
14.11.2019 21:54 4,3 C 2,2 C 1,7 C 89 % 1003,6 hPa 0,0 l/m 0 min 0 min 0 W/m 0,0 km/h (0 Bft) 97,83 %
14.11.2019 21:56 4,3 C 2,2 C 1,7 C 88 % 1003,6 hPa 0,0 l/m 0 min 0 min 0 W/m 0,0 km/h (0 Bft) 93,62 %
14.11.2019 21:58 4,2 C 2,2 C 1,7 C 88 % 1003,6 hPa 0,0 l/m 0 min 0 min 0 W/m 0,0 km/h (0 Bft) 93,62 %
14.11.2019 22:00 4,2 C 2,2 C 1,7 C 88 % 1003,6 hPa 0,0 l/m 0 min 0 min 0 W/m 0,0 km/h (0 Bft) 93,62 %
14.11.2019 22:02 4,2 C 2,2 C 1,7 C 88 % 1003,6 hPa 0,0 l/m 0 min 0 min 0 W/m 0,0 km/h (0 Bft) 93,62 %
14.11.2019 22:04 4,1 C 2,2 C 1,7 C 88 % 1003,6 hPa 0,0 l/m 0 min 0 min 0 W/m 3,2 km/h (1 Bft) 95,74 %
14.11.2019 22:06 4,1 C 2,2 C 1,7 C 88 % 1003,5 hPa 0,0 l/m 0 min 0 min 0 W/m 3,2 km/h (1 Bft) 95,65 %
14.11.2019 22:08 4,1 C 2,2 C 1,7 C 89 % 1003,5 hPa 0,0 l/m 0 min 0 min 0 W/m 0,0 km/h (0 Bft) 95,74 %
14.11.2019 22:10 4,0 C 2,2 C 1,7 C 89 % 1003,5 hPa 0,0 l/m 0 min 0 min 0 W/m 0,0 km/h (0 Bft) 95,74 %
14.11.2019 22:12 4,0 C 2,2 C 1,7 C 89 % 1003,5 hPa 0,0 l/m 0 min 0 min 0 W/m 0,0 km/h (0 Bft) 95,74 %
14.11.2019 22:14 3,9 C 2,2 C 1,7 C 89 % 1003,5 hPa 0,0 l/m 0 min 0 min 0 W/m 0,0 km/h (0 Bft) 95,74 %
14.11.2019 22:16 3,9 C 2,2 C 1,7 C 89 % 1003,4 hPa 0,0 l/m 0 min 0 min 0 W/m 0,0 km/h (0 Bft) 93,48 %
14.11.2019 22:18 3,9 C 2,2 C 1,7 C 89 % 1003,5 hPa 0,0 l/m 0 min 0 min 0 W/m 0,0 km/h (0 Bft) 95,74 %
14.11.2019 22:20 3,9 C 2,2 C 1,7 C 89 % 1003,5 hPa 0,0 l/m 0 min 0 min 0 W/m 0,0 km/h (0 Bft) 95,74 %
14.11.2019 22:22 3,8 C 2,2 C 1,7 C 88 % 1003,5 hPa 0,0 l/m 0 min 0 min 0 W/m 3,2 km/h (1 Bft) 95,74 %
14.11.2019 22:24 3,8 C 2,2 C 1,7 C 88 % 1003,5 hPa 0,0 l/m 0 min 0 min 0 W/m 0,0 km/h (0 Bft) 95,74 %
14.11.2019 22:26 3,8 C 2,2 C 1,7 C 88 % 1003,4 hPa 0,0 l/m 0 min 0 min 0 W/m 3,2 km/h (1 Bft) 95,74 %
14.11.2019 22:28 3,7 C 2,2 C 1,7 C 89 % 1003,4 hPa 0,0 l/m 0 min 0 min 0 W/m 3,2 km/h (1 Bft) 93,62 %
14.11.2019 22:30 3,7 C 2,2 C 1,7 C 89 % 1003,4 hPa 0,0 l/m 0 min 0 min 0 W/m 3,2 km/h (1 Bft) 95,65 %
14.11.2019 22:32 3,7 C 2,2 C 1,7 C 89 % 1003,3 hPa 0,0 l/m 0 min 0 min 0 W/m 3,2 km/h (1 Bft) 65,96 %
14.11.2019 22:34 3,6 C 2,2 C 1,7 C 89 % 1003,3 hPa 0,0 l/m 0 min 0 min 0 W/m 3,2 km/h (1 Bft) 82,61 %
14.11.2019 22:36 3,6 C 2,8 C 1,7 C 89 % 1003,2 hPa 0,0 l/m 0 min 0 min 0 W/m 3,2 km/h (1 Bft) 93,62 %
14.11.2019 22:38 3,6 C 2,8 C 1,7 C 89 % 1003,3 hPa 0,0 l/m 0 min 0 min 0 W/m 3,2 km/h (1 Bft) 97,87 %
14.11.2019 22:40 3,6 C 2,2 C 1,7 C 89 % 1003,2 hPa 0,0 l/m 0 min 0 min 0 W/m 0,0 km/h (0 Bft) 97,83 %
14.11.2019 22:42 3,6 C 2,2 C 1,7 C 89 % 1003,2 hPa 0,0 l/m 0 min 0 min 0 W/m 0,0 km/h (0 Bft) 93,62 %
14.11.2019 22:44 3,5 C 2,2 C 1,7 C 89 % 1003,2 hPa 0,0 l/m 0 min 0 min 0 W/m 3,2 km/h (1 Bft) 97,87 %
14.11.2019 22:46 3,5 C 2,8 C 1,7 C 89 % 1003,1 hPa 0,0 l/m 0 min 0 min 0 W/m 3,2 km/h (1 Bft) 97,87 %
14.11.2019 22:48 3,5 C 2,2 C 1,7 C 89 % 1003,1 hPa 0,0 l/m 0 min 0 min 0 W/m 3,2 km/h (1 Bft) 97,87 %
14.11.2019 22:50 3,5 C 2,2 C 1,7 C 89 % 1003,1 hPa 0,0 l/m 0 min 0 min 0 W/m 3,2 km/h (1 Bft) 95,74 %
14.11.2019 22:52 3,4 C 2,2 C 1,7 C 90 % 1003,1 hPa 0,0 l/m 0 min 0 min 0 W/m 3,2 km/h (1 Bft) 95,65 %
14.11.2019 22:54 3,4 C 2,2 C 1,7 C 90 % 1003,0 hPa 0,0 l/m 0 min 0 min 0 W/m 3,2 km/h (1 Bft) 97,87 %
14.11.2019 22:56 3,4 C 2,2 C 1,7 C 89 % 1003,1 hPa 0,0 l/m 0 min 0 min 0 W/m 3,2 km/h (1 Bft) 97,87 %
14.11.2019 22:58 3,4 C 2,2 C 1,7 C 90 % 1003,1 hPa 0,0 l/m 0 min 0 min 0 W/m 3,2 km/h (1 Bft) 93,62 %
14.11.2019 23:00 3,4 C 2,2 C 1,7 C 90 % 1003,0 hPa 0,0 l/m 0 min 0 min 0 W/m 3,2 km/h (1 Bft) 100,00 %
14.11.2019 23:02 3,4 C 2,2 C 1,7 C 90 % 1003,0 hPa 0,0 l/m 0 min 0 min 0 W/m 0,0 km/h (0 Bft) 97,87 %
14.11.2019 23:04 3,3 C 2,2 C 1,7 C 90 % 1003,0 hPa 0,0 l/m 0 min 0 min 0 W/m 3,2 km/h (1 Bft) 100,00 %
14.11.2019 23:06 3,3 C 2,2 C 1,7 C 90 % 1003,1 hPa 0,0 l/m 0 min 0 min 0 W/m 3,2 km/h (1 Bft) 97,87 %
14.11.2019 23:08 3,3 C 2,2 C 1,7 C 90 % 1003,1 hPa 0,0 l/m 0 min 0 min 0 W/m 3,2 km/h (1 Bft) 93,62 %
14.11.2019 23:10 3,3 C 2,2 C 1,7 C 90 % 1003,1 hPa 0,0 l/m 0 min 0 min 0 W/m 3,2 km/h (1 Bft) 100,00 %
14.11.2019 23:12 3,3 C 2,2 C 1,7 C 90 % 1003,1 hPa 0,0 l/m 0 min 0 min 0 W/m 3,2 km/h (1 Bft) 97,87 %
14.11.2019 23:14 3,3 C 2,2 C 1,7 C 90 % 1003,1 hPa 0,0 l/m 0 min 0 min 0 W/m 3,2 km/h (1 Bft) 97,83 %
14.11.2019 23:16 3,3 C 2,2 C 1,7 C 90 % 1003,1 hPa 0,0 l/m 0 min 0 min 0 W/m 3,2 km/h (1 Bft) 97,87 %
14.11.2019 23:18 3,3 C 2,2 C 1,1 C 90 % 1003,0 hPa 0,0 l/m 0 min 0 min 0 W/m 0,0 km/h (0 Bft) 95,74 %
14.11.2019 23:20 3,2 C 2,2 C 1,1 C 90 % 1003,1 hPa 0,0 l/m 0 min 0 min 0 W/m 3,2 km/h (1 Bft) 97,87 %
14.11.2019 23:22 3,2 C 2,2 C 1,1 C 90 % 1003,0 hPa 0,0 l/m 0 min 0 min 0 W/m 0,0 km/h (0 Bft) 97,87 %
14.11.2019 23:24 3,2 C 2,2 C 1,1 C 90 % 1003,0 hPa 0,0 l/m 0 min 0 min 0 W/m 0,0 km/h (0 Bft) 97,87 %
14.11.2019 23:26 3,2 C 2,2 C 1,1 C 90 % 1003,0 hPa 0,0 l/m 0 min 0 min 0 W/m 6,4 km/h (2 Bft) 97,83 %
14.11.2019 23:28 3,2 C 2,2 C 1,1 C 90 % 1002,9 hPa 0,0 l/m 0 min 0 min 0 W/m 0,0 km/h (0 Bft) 97,87 %
14.11.2019 23:30 3,2 C 1,7 C 1,1 C 90 % 1002,9 hPa 0,0 l/m 0 min 0 min 0 W/m 0,0 km/h (0 Bft) 95,74 %
14.11.2019 23:32 3,2 C 1,7 C 1,1 C 90 % 1002,9 hPa 0,0 l/m 0 min 0 min 0 W/m 3,2 km/h (1 Bft) 97,87 %
14.11.2019 23:34 3,1 C 1,7 C 1,1 C 90 % 1002,8 hPa 0,0 l/m 0 min 0 min 0 W/m 0,0 km/h (0 Bft) 97,87 %
14.11.2019 23:36 3,1 C 1,7 C 1,1 C 90 % 1002,8 hPa 0,0 l/m 0 min 0 min 0 W/m 3,2 km/h (1 Bft) 97,87 %
14.11.2019 23:38 3,1 C 1,7 C 1,1 C 90 % 1002,8 hPa 0,0 l/m 0 min 0 min 0 W/m 3,2 km/h (1 Bft) 93,48 %
14.11.2019 23:40 3,1 C 2,2 C 1,1 C 90 % 1002,8 hPa 0,0 l/m 0 min 0 min 0 W/m 3,2 km/h (1 Bft) 97,87 %
14.11.2019 23:42 3,1 C 2,2 C 1,1 C 91 % 1002,7 hPa 0,0 l/m 0 min 0 min 0 W/m 3,2 km/h (1 Bft) 97,87 %
14.11.2019 23:44 3,1 C 2,2 C 1,1 C 91 % 1002,7 hPa 0,0 l/m 0 min 0 min 0 W/m 3,2 km/h (1 Bft) 97,87 %
14.11.2019 23:46 3,1 C 2,2 C 1,7 C 91 % 1002,7 hPa 0,0 l/m 0 min 0 min 0 W/m 3,2 km/h (1 Bft) 97,87 %
14.11.2019 23:48 3,1 C 2,2 C 1,7 C 91 % 1002,6 hPa 0,0 l/m 0 min 0 min 0 W/m 0,0 km/h (0 Bft) 100,00 %
14.11.2019 23:50 3,1 C 2,2 C 1,7 C 91 % 1002,6 hPa 0,0 l/m 0 min 0 min 0 W/m 3,2 km/h (1 Bft) 100,00 %
14.11.2019 23:52 3,0 C 2,2 C 1,1 C 91 % 1002,7 hPa 0,0 l/m 0 min 0 min 0 W/m 0,0 km/h (0 Bft) 100,00 %
14.11.2019 23:54 3,0 C 2,2 C 1,1 C 91 % 1002,7 hPa 0,0 l/m 0 min 0 min 0 W/m 0,0 km/h (0 Bft) 100,00 %
14.11.2019 23:56 3,0 C 2,2 C 1,1 C 91 % 1002,7 hPa 0,0 l/m 0 min 0 min 0 W/m 3,2 km/h (1 Bft) 100,00 %
14.11.2019 23:58 3,0 C 2,2 C 1,1 C 91 % 1002,7 hPa 0,0 l/m 0 min 0 min 0 W/m 3,2 km/h (1 Bft) 100,00 %
_ Min-Zeit 23:52 23:30 23:18 14:50 03:26 - - - - 16:22 03:26
Minimum _ 3,0 C 1,7 C 1,1 C 76 % 1000,5 hPa - - - - 0,0 km/h (0 Bft) 51,11 %
_ Max-Zeit 14:46 12:12 11:58 05:20 20:22 00:00 12:08 00:00 12:12 09:14 00:00
Maximum _ 8,4 C 11,1 C 7,2 C 95 % 1004,0 hPa 0,0 l/m 4 min 0 min 356 W/m 41,8 km/h
O (6 Bft)
100,00 %
Durchschnitt _ 5,7 C 5,0 C 4,3 C 88 % 1002,2 hPa #0,0 l/m #56 min. #0 min. 82 W/m 14,0 km/h (3 Bft) 97,13 %
© 2019 W. Hausmann